<?xml version="1.0" encoding="UTF-8" standalone="no" ?>
<gpx xmlns="http://www.topografix.com/GPX/1/1" xmlns:xsi="http://www.w3.org/2001/XMLSchema-instance" xsi:schemaLocation="http://www.topografix.com/GPX/1/1 http://www.topografix.com/GPX/1/1/gpx.xsd" version="1.1" creator="VisuGPX - https://www.visugpx.com">
  <metadata>
    <name>2015-12-15 Pointe des Torchets - Trou de l\'Agneau</name>
    <desc><![CDATA[Chemin de crête puis descente en rappels - Sortie CAF tour des sommets de CHambéry 5/7]]></desc>
  </metadata>
  <trk>
    <name><![CDATA[2015-12-15 Pointe des Torchets-Margériaz]]></name>
    <trkseg>
      <trkpt lat="45.58419" lon="6.06159">
        <ele>1097</ele>
        <time>2015-12-15T07:19:23Z</time>
      </trkpt>
      <trkpt lat="45.58435" lon="6.06165">
        <ele>1119</ele>
        <time>2015-12-15T07:19:41Z</time>
      </trkpt>
      <trkpt lat="45.58425" lon="6.06165">
        <ele>1110</ele>
        <time>2015-12-15T07:19:51Z</time>
      </trkpt>
      <trkpt lat="45.58419" lon="6.06153">
        <ele>1095</ele>
        <time>2015-12-15T07:20:12Z</time>
      </trkpt>
      <trkpt lat="45.58408" lon="6.06145">
        <ele>1087</ele>
        <time>2015-12-15T07:20:20Z</time>
      </trkpt>
      <trkpt lat="45.58397" lon="6.06142">
        <ele>1082</ele>
        <time>2015-12-15T07:20:29Z</time>
      </trkpt>
      <trkpt lat="45.58386" lon="6.06141">
        <ele>1077</ele>
        <time>2015-12-15T07:20:38Z</time>
      </trkpt>
      <trkpt lat="45.58376" lon="6.06136">
        <ele>1086</ele>
        <time>2015-12-15T07:20:58Z</time>
      </trkpt>
      <trkpt lat="45.58366" lon="6.06127">
        <ele>1088</ele>
        <time>2015-12-15T07:21:14Z</time>
      </trkpt>
      <trkpt lat="45.5836" lon="6.06112">
        <ele>1088</ele>
        <time>2015-12-15T07:21:30Z</time>
      </trkpt>
      <trkpt lat="45.58362" lon="6.061">
        <ele>1091</ele>
        <time>2015-12-15T07:21:46Z</time>
      </trkpt>
      <trkpt lat="45.58352" lon="6.06108">
        <ele>1094</ele>
        <time>2015-12-15T07:22:18Z</time>
      </trkpt>
      <trkpt lat="45.58354" lon="6.06093">
        <ele>1102.3</ele>
        <time>2015-12-15T07:22:39Z</time>
      </trkpt>
      <trkpt lat="45.58361" lon="6.06084">
        <ele>1104.2</ele>
        <time>2015-12-15T07:22:52Z</time>
      </trkpt>
      <trkpt lat="45.5837" lon="6.06079">
        <ele>1106.1</ele>
        <time>2015-12-15T07:23:00Z</time>
      </trkpt>
      <trkpt lat="45.5837" lon="6.06066">
        <ele>1102</ele>
        <time>2015-12-15T07:23:24Z</time>
      </trkpt>
      <trkpt lat="45.58367" lon="6.06054">
        <ele>1102</ele>
        <time>2015-12-15T07:23:42Z</time>
      </trkpt>
      <trkpt lat="45.58363" lon="6.06042">
        <ele>1101.2</ele>
        <time>2015-12-15T07:23:54Z</time>
      </trkpt>
      <trkpt lat="45.58359" lon="6.0603">
        <ele>1106.2</ele>
        <time>2015-12-15T07:24:07Z</time>
      </trkpt>
      <trkpt lat="45.58358" lon="6.06017">
        <ele>1126.3</ele>
        <time>2015-12-15T07:24:28Z</time>
      </trkpt>
      <trkpt lat="45.58354" lon="6.06004">
        <ele>1128</ele>
        <time>2015-12-15T07:24:42Z</time>
      </trkpt>
      <trkpt lat="45.5835" lon="6.05992">
        <ele>1132.2</ele>
        <time>2015-12-15T07:25:02Z</time>
      </trkpt>
      <trkpt lat="45.58347" lon="6.0598">
        <ele>1140.7</ele>
        <time>2015-12-15T07:25:42Z</time>
      </trkpt>
      <trkpt lat="45.58345" lon="6.05967">
        <ele>1131</ele>
        <time>2015-12-15T07:26:04Z</time>
      </trkpt>
      <trkpt lat="45.5835" lon="6.05956">
        <ele>1132.4</ele>
        <time>2015-12-15T07:26:22Z</time>
      </trkpt>
      <trkpt lat="45.58355" lon="6.05945">
        <ele>1130.8</ele>
        <time>2015-12-15T07:26:41Z</time>
      </trkpt>
      <trkpt lat="45.58358" lon="6.05932">
        <ele>1136</ele>
        <time>2015-12-15T07:27:08Z</time>
      </trkpt>
      <trkpt lat="45.58353" lon="6.05922">
        <ele>1144.2</ele>
        <time>2015-12-15T07:27:38Z</time>
      </trkpt>
      <trkpt lat="45.58347" lon="6.05912">
        <ele>1148.4</ele>
        <time>2015-12-15T07:28:15Z</time>
      </trkpt>
      <trkpt lat="45.58341" lon="6.05902">
        <ele>1155.3</ele>
        <time>2015-12-15T07:28:39Z</time>
      </trkpt>
      <trkpt lat="45.58342" lon="6.05889">
        <ele>1161.1</ele>
        <time>2015-12-15T07:28:59Z</time>
      </trkpt>
      <trkpt lat="45.58335" lon="6.05881">
        <ele>1157.4</ele>
        <time>2015-12-15T07:29:18Z</time>
      </trkpt>
      <trkpt lat="45.58326" lon="6.05881">
        <ele>1164.9</ele>
        <time>2015-12-15T07:29:36Z</time>
      </trkpt>
      <trkpt lat="45.58316" lon="6.0588">
        <ele>1171.8</ele>
        <time>2015-12-15T07:29:51Z</time>
      </trkpt>
      <trkpt lat="45.58307" lon="6.0588">
        <ele>1174.8</ele>
        <time>2015-12-15T07:30:03Z</time>
      </trkpt>
      <trkpt lat="45.58298" lon="6.05877">
        <ele>1175.2</ele>
        <time>2015-12-15T07:30:20Z</time>
      </trkpt>
      <trkpt lat="45.5829" lon="6.05871">
        <ele>1180.8</ele>
        <time>2015-12-15T07:30:38Z</time>
      </trkpt>
      <trkpt lat="45.58283" lon="6.05862">
        <ele>1182</ele>
        <time>2015-12-15T07:30:57Z</time>
      </trkpt>
      <trkpt lat="45.58275" lon="6.05856">
        <ele>1180.3</ele>
        <time>2015-12-15T07:31:11Z</time>
      </trkpt>
      <trkpt lat="45.58266" lon="6.05852">
        <ele>1181.5</ele>
        <time>2015-12-15T07:31:24Z</time>
      </trkpt>
      <trkpt lat="45.58259" lon="6.05845">
        <ele>1184.8</ele>
        <time>2015-12-15T07:31:40Z</time>
      </trkpt>
      <trkpt lat="45.58261" lon="6.05831">
        <ele>1192.5</ele>
        <time>2015-12-15T07:32:00Z</time>
      </trkpt>
      <trkpt lat="45.58269" lon="6.05826">
        <ele>1205</ele>
        <time>2015-12-15T07:32:33Z</time>
      </trkpt>
      <trkpt lat="45.58273" lon="6.05814">
        <ele>1204.2</ele>
        <time>2015-12-15T07:33:13Z</time>
      </trkpt>
      <trkpt lat="45.58273" lon="6.05801">
        <ele>1203.3</ele>
        <time>2015-12-15T07:33:28Z</time>
      </trkpt>
      <trkpt lat="45.58275" lon="6.05787">
        <ele>1206.9</ele>
        <time>2015-12-15T07:33:47Z</time>
      </trkpt>
      <trkpt lat="45.58271" lon="6.05776">
        <ele>1214.8</ele>
        <time>2015-12-15T07:34:16Z</time>
      </trkpt>
      <trkpt lat="45.58275" lon="6.05763">
        <ele>1225.3</ele>
        <time>2015-12-15T07:34:40Z</time>
      </trkpt>
      <trkpt lat="45.58278" lon="6.05752">
        <ele>1228.1</ele>
        <time>2015-12-15T07:34:54Z</time>
      </trkpt>
      <trkpt lat="45.5828" lon="6.05739">
        <ele>1227.3</ele>
        <time>2015-12-15T07:35:14Z</time>
      </trkpt>
      <trkpt lat="45.58283" lon="6.05726">
        <ele>1236.6</ele>
        <time>2015-12-15T07:35:40Z</time>
      </trkpt>
      <trkpt lat="45.58275" lon="6.05718">
        <ele>1236.4</ele>
        <time>2015-12-15T07:36:05Z</time>
      </trkpt>
      <trkpt lat="45.58266" lon="6.05718">
        <ele>1233</ele>
        <time>2015-12-15T07:36:14Z</time>
      </trkpt>
      <trkpt lat="45.58257" lon="6.05718">
        <ele>1231.9</ele>
        <time>2015-12-15T07:36:24Z</time>
      </trkpt>
      <trkpt lat="45.58247" lon="6.05718">
        <ele>1230</ele>
        <time>2015-12-15T07:36:39Z</time>
      </trkpt>
      <trkpt lat="45.58244" lon="6.05705">
        <ele>1234.2</ele>
        <time>2015-12-15T07:36:59Z</time>
      </trkpt>
      <trkpt lat="45.5825" lon="6.05695">
        <ele>1238.8</ele>
        <time>2015-12-15T07:37:16Z</time>
      </trkpt>
      <trkpt lat="45.58246" lon="6.05683">
        <ele>1241.8</ele>
        <time>2015-12-15T07:37:44Z</time>
      </trkpt>
      <trkpt lat="45.58237" lon="6.05678">
        <ele>1240</ele>
        <time>2015-12-15T07:37:59Z</time>
      </trkpt>
      <trkpt lat="45.58229" lon="6.0567">
        <ele>1241.9</ele>
        <time>2015-12-15T07:38:16Z</time>
      </trkpt>
      <trkpt lat="45.58223" lon="6.05661">
        <ele>1243.8</ele>
        <time>2015-12-15T07:38:42Z</time>
      </trkpt>
      <trkpt lat="45.58217" lon="6.05651">
        <ele>1248.1</ele>
        <time>2015-12-15T07:39:05Z</time>
      </trkpt>
      <trkpt lat="45.58211" lon="6.0564">
        <ele>1250.5</ele>
        <time>2015-12-15T07:39:22Z</time>
      </trkpt>
      <trkpt lat="45.58205" lon="6.05631">
        <ele>1244.3</ele>
        <time>2015-12-15T07:39:36Z</time>
      </trkpt>
      <trkpt lat="45.58199" lon="6.0562">
        <ele>1243.3</ele>
        <time>2015-12-15T07:39:49Z</time>
      </trkpt>
      <trkpt lat="45.58195" lon="6.05608">
        <ele>1241.9</ele>
        <time>2015-12-15T07:40:04Z</time>
      </trkpt>
      <trkpt lat="45.58189" lon="6.05599">
        <ele>1245.9</ele>
        <time>2015-12-15T07:40:23Z</time>
      </trkpt>
      <trkpt lat="45.58196" lon="6.0559">
        <ele>1253.7</ele>
        <time>2015-12-15T07:43:10Z</time>
      </trkpt>
      <trkpt lat="45.58188" lon="6.05597">
        <ele>1262.9</ele>
        <time>2015-12-15T07:44:31Z</time>
      </trkpt>
      <trkpt lat="45.58196" lon="6.0559">
        <ele>1257.9</ele>
        <time>2015-12-15T07:45:13Z</time>
      </trkpt>
      <trkpt lat="45.582" lon="6.05578">
        <ele>1260.1</ele>
        <time>2015-12-15T07:45:28Z</time>
      </trkpt>
      <trkpt lat="45.58207" lon="6.0557">
        <ele>1260.8</ele>
        <time>2015-12-15T07:45:46Z</time>
      </trkpt>
      <trkpt lat="45.58215" lon="6.05563">
        <ele>1262.4</ele>
        <time>2015-12-15T07:46:05Z</time>
      </trkpt>
      <trkpt lat="45.58222" lon="6.05554">
        <ele>1262.9</ele>
        <time>2015-12-15T07:46:23Z</time>
      </trkpt>
      <trkpt lat="45.58228" lon="6.05544">
        <ele>1267.8</ele>
        <time>2015-12-15T07:46:40Z</time>
      </trkpt>
      <trkpt lat="45.58234" lon="6.05534">
        <ele>1274.6</ele>
        <time>2015-12-15T07:47:10Z</time>
      </trkpt>
      <trkpt lat="45.58239" lon="6.05523">
        <ele>1276</ele>
        <time>2015-12-15T07:47:26Z</time>
      </trkpt>
      <trkpt lat="45.58245" lon="6.05513">
        <ele>1276.9</ele>
        <time>2015-12-15T07:47:42Z</time>
      </trkpt>
      <trkpt lat="45.5825" lon="6.05502">
        <ele>1278.7</ele>
        <time>2015-12-15T07:48:03Z</time>
      </trkpt>
      <trkpt lat="45.58259" lon="6.05497">
        <ele>1284.3</ele>
        <time>2015-12-15T07:48:34Z</time>
      </trkpt>
      <trkpt lat="45.58264" lon="6.05486">
        <ele>1286.5</ele>
        <time>2015-12-15T07:48:56Z</time>
      </trkpt>
      <trkpt lat="45.58269" lon="6.05475">
        <ele>1285.4</ele>
        <time>2015-12-15T07:49:10Z</time>
      </trkpt>
      <trkpt lat="45.58278" lon="6.0547">
        <ele>1276</ele>
        <time>2015-12-15T07:50:14Z</time>
      </trkpt>
      <trkpt lat="45.58287" lon="6.05467">
        <ele>1282.8</ele>
        <time>2015-12-15T07:50:34Z</time>
      </trkpt>
      <trkpt lat="45.58295" lon="6.0546">
        <ele>1291.1</ele>
        <time>2015-12-15T07:50:55Z</time>
      </trkpt>
      <trkpt lat="45.58303" lon="6.05454">
        <ele>1294.6</ele>
        <time>2015-12-15T07:51:10Z</time>
      </trkpt>
      <trkpt lat="45.58312" lon="6.05457">
        <ele>1296.4</ele>
        <time>2015-12-15T07:51:38Z</time>
      </trkpt>
      <trkpt lat="45.58321" lon="6.05457">
        <ele>1293.5</ele>
        <time>2015-12-15T07:52:00Z</time>
      </trkpt>
      <trkpt lat="45.5833" lon="6.0546">
        <ele>1294.1</ele>
        <time>2015-12-15T07:52:29Z</time>
      </trkpt>
      <trkpt lat="45.58339" lon="6.05459">
        <ele>1300.1</ele>
        <time>2015-12-15T07:52:45Z</time>
      </trkpt>
      <trkpt lat="45.58348" lon="6.05456">
        <ele>1303.4</ele>
        <time>2015-12-15T07:53:01Z</time>
      </trkpt>
      <trkpt lat="45.58354" lon="6.05446">
        <ele>1304.2</ele>
        <time>2015-12-15T07:53:14Z</time>
      </trkpt>
      <trkpt lat="45.5836" lon="6.05436">
        <ele>1306.3</ele>
        <time>2015-12-15T07:53:25Z</time>
      </trkpt>
      <trkpt lat="45.58367" lon="6.05426">
        <ele>1307.9</ele>
        <time>2015-12-15T07:53:36Z</time>
      </trkpt>
      <trkpt lat="45.58375" lon="6.0542">
        <ele>1306.3</ele>
        <time>2015-12-15T07:53:46Z</time>
      </trkpt>
      <trkpt lat="45.58384" lon="6.05415">
        <ele>1304.2</ele>
        <time>2015-12-15T07:53:57Z</time>
      </trkpt>
      <trkpt lat="45.58391" lon="6.05407">
        <ele>1306.6</ele>
        <time>2015-12-15T07:54:10Z</time>
      </trkpt>
      <trkpt lat="45.58398" lon="6.05397">
        <ele>1310.4</ele>
        <time>2015-12-15T07:54:24Z</time>
      </trkpt>
      <trkpt lat="45.58403" lon="6.05386">
        <ele>1314.5</ele>
        <time>2015-12-15T07:54:39Z</time>
      </trkpt>
      <trkpt lat="45.58407" lon="6.05374">
        <ele>1313.7</ele>
        <time>2015-12-15T07:54:55Z</time>
      </trkpt>
      <trkpt lat="45.58417" lon="6.05371">
        <ele>1321.6</ele>
        <time>2015-12-15T07:55:30Z</time>
      </trkpt>
      <trkpt lat="45.58426" lon="6.05371">
        <ele>1320.2</ele>
        <time>2015-12-15T07:55:49Z</time>
      </trkpt>
      <trkpt lat="45.58435" lon="6.05369">
        <ele>1325.7</ele>
        <time>2015-12-15T07:56:07Z</time>
      </trkpt>
      <trkpt lat="45.58436" lon="6.05356">
        <ele>1329.6</ele>
        <time>2015-12-15T07:56:29Z</time>
      </trkpt>
      <trkpt lat="45.58436" lon="6.05343">
        <ele>1334.1</ele>
        <time>2015-12-15T07:56:47Z</time>
      </trkpt>
      <trkpt lat="45.58441" lon="6.05331">
        <ele>1338.2</ele>
        <time>2015-12-15T07:57:24Z</time>
      </trkpt>
      <trkpt lat="45.58443" lon="6.05319">
        <ele>1340.4</ele>
        <time>2015-12-15T07:57:49Z</time>
      </trkpt>
      <trkpt lat="45.58452" lon="6.05312">
        <ele>1345.4</ele>
        <time>2015-12-15T07:58:23Z</time>
      </trkpt>
      <trkpt lat="45.5846" lon="6.05318">
        <ele>1355</ele>
        <time>2015-12-15T07:59:28Z</time>
      </trkpt>
      <trkpt lat="45.58469" lon="6.05323">
        <ele>1353.5</ele>
        <time>2015-12-15T07:59:42Z</time>
      </trkpt>
      <trkpt lat="45.58478" lon="6.0532">
        <ele>1348.2</ele>
        <time>2015-12-15T08:00:00Z</time>
      </trkpt>
      <trkpt lat="45.58487" lon="6.05318">
        <ele>1342.8</ele>
        <time>2015-12-15T08:00:15Z</time>
      </trkpt>
      <trkpt lat="45.58496" lon="6.05317">
        <ele>1340.3</ele>
        <time>2015-12-15T08:00:26Z</time>
      </trkpt>
      <trkpt lat="45.58505" lon="6.05317">
        <ele>1339.8</ele>
        <time>2015-12-15T08:00:43Z</time>
      </trkpt>
      <trkpt lat="45.58514" lon="6.05312">
        <ele>1343.3</ele>
        <time>2015-12-15T08:00:58Z</time>
      </trkpt>
      <trkpt lat="45.58521" lon="6.05303">
        <ele>1346.7</ele>
        <time>2015-12-15T08:01:11Z</time>
      </trkpt>
      <trkpt lat="45.58529" lon="6.05309">
        <ele>1353.4</ele>
        <time>2015-12-15T08:01:32Z</time>
      </trkpt>
      <trkpt lat="45.58537" lon="6.05301">
        <ele>1359.8</ele>
        <time>2015-12-15T08:01:54Z</time>
      </trkpt>
      <trkpt lat="45.58542" lon="6.05291">
        <ele>1360.5</ele>
        <time>2015-12-15T08:02:14Z</time>
      </trkpt>
      <trkpt lat="45.58549" lon="6.05282">
        <ele>1361.4</ele>
        <time>2015-12-15T08:06:48Z</time>
      </trkpt>
      <trkpt lat="45.58558" lon="6.05281">
        <ele>1363.9</ele>
        <time>2015-12-15T08:07:06Z</time>
      </trkpt>
      <trkpt lat="45.58568" lon="6.0528">
        <ele>1365.6</ele>
        <time>2015-12-15T08:07:21Z</time>
      </trkpt>
      <trkpt lat="45.58577" lon="6.05279">
        <ele>1368.7</ele>
        <time>2015-12-15T08:07:34Z</time>
      </trkpt>
      <trkpt lat="45.58586" lon="6.05278">
        <ele>1369.8</ele>
        <time>2015-12-15T08:07:48Z</time>
      </trkpt>
      <trkpt lat="45.58594" lon="6.05271">
        <ele>1367.8</ele>
        <time>2015-12-15T08:07:59Z</time>
      </trkpt>
      <trkpt lat="45.58604" lon="6.05267">
        <ele>1368.4</ele>
        <time>2015-12-15T08:08:10Z</time>
      </trkpt>
      <trkpt lat="45.58613" lon="6.05265">
        <ele>1372.5</ele>
        <time>2015-12-15T08:08:24Z</time>
      </trkpt>
      <trkpt lat="45.58622" lon="6.0526">
        <ele>1373.1</ele>
        <time>2015-12-15T08:08:36Z</time>
      </trkpt>
      <trkpt lat="45.58631" lon="6.0526">
        <ele>1379.5</ele>
        <time>2015-12-15T08:08:48Z</time>
      </trkpt>
      <trkpt lat="45.5864" lon="6.05259">
        <ele>1378</ele>
        <time>2015-12-15T08:09:03Z</time>
      </trkpt>
      <trkpt lat="45.58649" lon="6.05259">
        <ele>1379.1</ele>
        <time>2015-12-15T08:09:17Z</time>
      </trkpt>
      <trkpt lat="45.58658" lon="6.05255">
        <ele>1381.4</ele>
        <time>2015-12-15T08:09:30Z</time>
      </trkpt>
      <trkpt lat="45.58666" lon="6.05248">
        <ele>1383.7</ele>
        <time>2015-12-15T08:09:42Z</time>
      </trkpt>
      <trkpt lat="45.58675" lon="6.05244">
        <ele>1388</ele>
        <time>2015-12-15T08:09:58Z</time>
      </trkpt>
      <trkpt lat="45.58683" lon="6.05241">
        <ele>1387.7</ele>
        <time>2015-12-15T08:10:11Z</time>
      </trkpt>
      <trkpt lat="45.58692" lon="6.05238">
        <ele>1386.4</ele>
        <time>2015-12-15T08:10:22Z</time>
      </trkpt>
      <trkpt lat="45.58702" lon="6.05234">
        <ele>1385.6</ele>
        <time>2015-12-15T08:10:38Z</time>
      </trkpt>
      <trkpt lat="45.5871" lon="6.05232">
        <ele>1384</ele>
        <time>2015-12-15T08:10:50Z</time>
      </trkpt>
      <trkpt lat="45.5872" lon="6.05231">
        <ele>1386.4</ele>
        <time>2015-12-15T08:11:01Z</time>
      </trkpt>
      <trkpt lat="45.5873" lon="6.0523">
        <ele>1388.3</ele>
        <time>2015-12-15T08:11:10Z</time>
      </trkpt>
      <trkpt lat="45.58739" lon="6.05229">
        <ele>1389.9</ele>
        <time>2015-12-15T08:11:21Z</time>
      </trkpt>
      <trkpt lat="45.58748" lon="6.05227">
        <ele>1392</ele>
        <time>2015-12-15T08:11:32Z</time>
      </trkpt>
      <trkpt lat="45.58757" lon="6.0523">
        <ele>1392.1</ele>
        <time>2015-12-15T08:11:43Z</time>
      </trkpt>
      <trkpt lat="45.58767" lon="6.05232">
        <ele>1393.6</ele>
        <time>2015-12-15T08:11:53Z</time>
      </trkpt>
      <trkpt lat="45.58776" lon="6.05235">
        <ele>1392.4</ele>
        <time>2015-12-15T08:12:03Z</time>
      </trkpt>
      <trkpt lat="45.58786" lon="6.05238">
        <ele>1389.8</ele>
        <time>2015-12-15T08:12:14Z</time>
      </trkpt>
      <trkpt lat="45.58795" lon="6.05242">
        <ele>1387.3</ele>
        <time>2015-12-15T08:12:24Z</time>
      </trkpt>
      <trkpt lat="45.58804" lon="6.05246">
        <ele>1388.6</ele>
        <time>2015-12-15T08:12:32Z</time>
      </trkpt>
      <trkpt lat="45.58813" lon="6.0525">
        <ele>1391.2</ele>
        <time>2015-12-15T08:12:42Z</time>
      </trkpt>
      <trkpt lat="45.58822" lon="6.05252">
        <ele>1389.7</ele>
        <time>2015-12-15T08:12:51Z</time>
      </trkpt>
      <trkpt lat="45.58832" lon="6.05254">
        <ele>1388</ele>
        <time>2015-12-15T08:13:01Z</time>
      </trkpt>
      <trkpt lat="45.5884" lon="6.05258">
        <ele>1389.7</ele>
        <time>2015-12-15T08:13:11Z</time>
      </trkpt>
      <trkpt lat="45.5885" lon="6.05258">
        <ele>1392.2</ele>
        <time>2015-12-15T08:13:22Z</time>
      </trkpt>
      <trkpt lat="45.58859" lon="6.0526">
        <ele>1392.3</ele>
        <time>2015-12-15T08:13:34Z</time>
      </trkpt>
      <trkpt lat="45.58869" lon="6.05261">
        <ele>1395.8</ele>
        <time>2015-12-15T08:13:45Z</time>
      </trkpt>
      <trkpt lat="45.58878" lon="6.05259">
        <ele>1398.2</ele>
        <time>2015-12-15T08:13:58Z</time>
      </trkpt>
      <trkpt lat="45.58888" lon="6.05257">
        <ele>1399.8</ele>
        <time>2015-12-15T08:14:11Z</time>
      </trkpt>
      <trkpt lat="45.58897" lon="6.05256">
        <ele>1401.2</ele>
        <time>2015-12-15T08:14:25Z</time>
      </trkpt>
      <trkpt lat="45.58906" lon="6.05256">
        <ele>1404.6</ele>
        <time>2015-12-15T08:14:39Z</time>
      </trkpt>
      <trkpt lat="45.58916" lon="6.05256">
        <ele>1406.8</ele>
        <time>2015-12-15T08:14:50Z</time>
      </trkpt>
      <trkpt lat="45.58924" lon="6.05259">
        <ele>1408.2</ele>
        <time>2015-12-15T08:15:02Z</time>
      </trkpt>
      <trkpt lat="45.58934" lon="6.0526">
        <ele>1408.6</ele>
        <time>2015-12-15T08:15:14Z</time>
      </trkpt>
      <trkpt lat="45.58943" lon="6.05261">
        <ele>1410.7</ele>
        <time>2015-12-15T08:15:25Z</time>
      </trkpt>
      <trkpt lat="45.58953" lon="6.05263">
        <ele>1408.4</ele>
        <time>2015-12-15T08:15:36Z</time>
      </trkpt>
      <trkpt lat="45.58963" lon="6.05265">
        <ele>1408.9</ele>
        <time>2015-12-15T08:15:47Z</time>
      </trkpt>
      <trkpt lat="45.58972" lon="6.05269">
        <ele>1410.2</ele>
        <time>2015-12-15T08:15:59Z</time>
      </trkpt>
      <trkpt lat="45.5898" lon="6.05273">
        <ele>1409.4</ele>
        <time>2015-12-15T08:16:09Z</time>
      </trkpt>
      <trkpt lat="45.58989" lon="6.05275">
        <ele>1409.4</ele>
        <time>2015-12-15T08:16:19Z</time>
      </trkpt>
      <trkpt lat="45.58998" lon="6.05271">
        <ele>1410</ele>
        <time>2015-12-15T08:16:30Z</time>
      </trkpt>
      <trkpt lat="45.59007" lon="6.05274">
        <ele>1412.3</ele>
        <time>2015-12-15T08:16:42Z</time>
      </trkpt>
      <trkpt lat="45.59015" lon="6.05277">
        <ele>1411.4</ele>
        <time>2015-12-15T08:16:53Z</time>
      </trkpt>
      <trkpt lat="45.59025" lon="6.05279">
        <ele>1410</ele>
        <time>2015-12-15T08:17:02Z</time>
      </trkpt>
      <trkpt lat="45.59035" lon="6.0528">
        <ele>1410.8</ele>
        <time>2015-12-15T08:17:11Z</time>
      </trkpt>
      <trkpt lat="45.59044" lon="6.05279">
        <ele>1412.3</ele>
        <time>2015-12-15T08:17:19Z</time>
      </trkpt>
      <trkpt lat="45.59054" lon="6.05281">
        <ele>1411.6</ele>
        <time>2015-12-15T08:17:28Z</time>
      </trkpt>
      <trkpt lat="45.59063" lon="6.05284">
        <ele>1413.2</ele>
        <time>2015-12-15T08:17:37Z</time>
      </trkpt>
      <trkpt lat="45.59073" lon="6.05287">
        <ele>1414.4</ele>
        <time>2015-12-15T08:17:47Z</time>
      </trkpt>
      <trkpt lat="45.59081" lon="6.0529">
        <ele>1414.4</ele>
        <time>2015-12-15T08:17:58Z</time>
      </trkpt>
      <trkpt lat="45.59091" lon="6.05291">
        <ele>1418.1</ele>
        <time>2015-12-15T08:18:10Z</time>
      </trkpt>
      <trkpt lat="45.59099" lon="6.05287">
        <ele>1420.2</ele>
        <time>2015-12-15T08:18:26Z</time>
      </trkpt>
      <trkpt lat="45.59108" lon="6.05293">
        <ele>1420.8</ele>
        <time>2015-12-15T08:21:09Z</time>
      </trkpt>
      <trkpt lat="45.59117" lon="6.05294">
        <ele>1424</ele>
        <time>2015-12-15T08:21:23Z</time>
      </trkpt>
      <trkpt lat="45.59126" lon="6.05298">
        <ele>1426.2</ele>
        <time>2015-12-15T08:21:35Z</time>
      </trkpt>
      <trkpt lat="45.59135" lon="6.05297">
        <ele>1429.3</ele>
        <time>2015-12-15T08:21:47Z</time>
      </trkpt>
      <trkpt lat="45.59144" lon="6.05298">
        <ele>1430.9</ele>
        <time>2015-12-15T08:21:58Z</time>
      </trkpt>
      <trkpt lat="45.59153" lon="6.05298">
        <ele>1431.7</ele>
        <time>2015-12-15T08:22:08Z</time>
      </trkpt>
      <trkpt lat="45.59163" lon="6.05302">
        <ele>1431.4</ele>
        <time>2015-12-15T08:22:19Z</time>
      </trkpt>
      <trkpt lat="45.59172" lon="6.05305">
        <ele>1433.3</ele>
        <time>2015-12-15T08:22:31Z</time>
      </trkpt>
      <trkpt lat="45.59181" lon="6.05308">
        <ele>1434.2</ele>
        <time>2015-12-15T08:22:43Z</time>
      </trkpt>
      <trkpt lat="45.59191" lon="6.0531">
        <ele>1435.4</ele>
        <time>2015-12-15T08:22:53Z</time>
      </trkpt>
      <trkpt lat="45.59201" lon="6.05311">
        <ele>1438.2</ele>
        <time>2015-12-15T08:23:04Z</time>
      </trkpt>
      <trkpt lat="45.5921" lon="6.05311">
        <ele>1439.1</ele>
        <time>2015-12-15T08:23:13Z</time>
      </trkpt>
      <trkpt lat="45.59219" lon="6.05312">
        <ele>1439.2</ele>
        <time>2015-12-15T08:23:22Z</time>
      </trkpt>
      <trkpt lat="45.59228" lon="6.05314">
        <ele>1438.7</ele>
        <time>2015-12-15T08:23:32Z</time>
      </trkpt>
      <trkpt lat="45.59237" lon="6.05318">
        <ele>1438.3</ele>
        <time>2015-12-15T08:23:42Z</time>
      </trkpt>
      <trkpt lat="45.59246" lon="6.0532">
        <ele>1439.4</ele>
        <time>2015-12-15T08:23:52Z</time>
      </trkpt>
      <trkpt lat="45.59255" lon="6.05322">
        <ele>1437.5</ele>
        <time>2015-12-15T08:24:03Z</time>
      </trkpt>
      <trkpt lat="45.59265" lon="6.05326">
        <ele>1436.3</ele>
        <time>2015-12-15T08:24:16Z</time>
      </trkpt>
      <trkpt lat="45.59274" lon="6.05323">
        <ele>1432.7</ele>
        <time>2015-12-15T08:24:28Z</time>
      </trkpt>
      <trkpt lat="45.59283" lon="6.05325">
        <ele>1429.7</ele>
        <time>2015-12-15T08:24:38Z</time>
      </trkpt>
      <trkpt lat="45.59293" lon="6.05328">
        <ele>1428.9</ele>
        <time>2015-12-15T08:24:47Z</time>
      </trkpt>
      <trkpt lat="45.59301" lon="6.05332">
        <ele>1427.3</ele>
        <time>2015-12-15T08:24:56Z</time>
      </trkpt>
      <trkpt lat="45.5931" lon="6.05337">
        <ele>1427.3</ele>
        <time>2015-12-15T08:25:06Z</time>
      </trkpt>
      <trkpt lat="45.5932" lon="6.05338">
        <ele>1427.9</ele>
        <time>2015-12-15T08:25:17Z</time>
      </trkpt>
      <trkpt lat="45.59329" lon="6.05342">
        <ele>1428.3</ele>
        <time>2015-12-15T08:25:27Z</time>
      </trkpt>
      <trkpt lat="45.59339" lon="6.05345">
        <ele>1431.1</ele>
        <time>2015-12-15T08:25:36Z</time>
      </trkpt>
      <trkpt lat="45.59348" lon="6.05349">
        <ele>1433.8</ele>
        <time>2015-12-15T08:25:47Z</time>
      </trkpt>
      <trkpt lat="45.59357" lon="6.0535">
        <ele>1435.3</ele>
        <time>2015-12-15T08:25:56Z</time>
      </trkpt>
      <trkpt lat="45.59366" lon="6.05352">
        <ele>1434.2</ele>
        <time>2015-12-15T08:26:05Z</time>
      </trkpt>
      <trkpt lat="45.59376" lon="6.05355">
        <ele>1434.1</ele>
        <time>2015-12-15T08:26:16Z</time>
      </trkpt>
      <trkpt lat="45.59385" lon="6.05357">
        <ele>1433.8</ele>
        <time>2015-12-15T08:26:26Z</time>
      </trkpt>
      <trkpt lat="45.59395" lon="6.05357">
        <ele>1432.6</ele>
        <time>2015-12-15T08:26:36Z</time>
      </trkpt>
      <trkpt lat="45.59405" lon="6.05359">
        <ele>1432.9</ele>
        <time>2015-12-15T08:26:46Z</time>
      </trkpt>
      <trkpt lat="45.59414" lon="6.05363">
        <ele>1431.4</ele>
        <time>2015-12-15T08:26:58Z</time>
      </trkpt>
      <trkpt lat="45.59423" lon="6.05368">
        <ele>1432.5</ele>
        <time>2015-12-15T08:27:11Z</time>
      </trkpt>
      <trkpt lat="45.59433" lon="6.05371">
        <ele>1435.8</ele>
        <time>2015-12-15T08:27:21Z</time>
      </trkpt>
      <trkpt lat="45.59441" lon="6.05375">
        <ele>1436.2</ele>
        <time>2015-12-15T08:27:32Z</time>
      </trkpt>
      <trkpt lat="45.59451" lon="6.05381">
        <ele>1438.4</ele>
        <time>2015-12-15T08:27:42Z</time>
      </trkpt>
      <trkpt lat="45.5946" lon="6.05381">
        <ele>1440</ele>
        <time>2015-12-15T08:27:51Z</time>
      </trkpt>
      <trkpt lat="45.5947" lon="6.05383">
        <ele>1439.2</ele>
        <time>2015-12-15T08:28:00Z</time>
      </trkpt>
      <trkpt lat="45.59478" lon="6.05387">
        <ele>1438.8</ele>
        <time>2015-12-15T08:28:08Z</time>
      </trkpt>
      <trkpt lat="45.59488" lon="6.05388">
        <ele>1437.3</ele>
        <time>2015-12-15T08:28:22Z</time>
      </trkpt>
      <trkpt lat="45.59498" lon="6.05387">
        <ele>1430.6</ele>
        <time>2015-12-15T08:28:38Z</time>
      </trkpt>
      <trkpt lat="45.59507" lon="6.05388">
        <ele>1426.3</ele>
        <time>2015-12-15T08:28:48Z</time>
      </trkpt>
      <trkpt lat="45.59516" lon="6.0539">
        <ele>1426</ele>
        <time>2015-12-15T08:28:56Z</time>
      </trkpt>
      <trkpt lat="45.59526" lon="6.05395">
        <ele>1426.7</ele>
        <time>2015-12-15T08:29:08Z</time>
      </trkpt>
      <trkpt lat="45.59534" lon="6.05399">
        <ele>1425.5</ele>
        <time>2015-12-15T08:29:21Z</time>
      </trkpt>
      <trkpt lat="45.59543" lon="6.05404">
        <ele>1424.1</ele>
        <time>2015-12-15T08:29:41Z</time>
      </trkpt>
      <trkpt lat="45.59552" lon="6.05409">
        <ele>1426.5</ele>
        <time>2015-12-15T08:29:55Z</time>
      </trkpt>
      <trkpt lat="45.59561" lon="6.05412">
        <ele>1423.6</ele>
        <time>2015-12-15T08:30:06Z</time>
      </trkpt>
      <trkpt lat="45.5957" lon="6.05415">
        <ele>1423.3</ele>
        <time>2015-12-15T08:30:16Z</time>
      </trkpt>
      <trkpt lat="45.5958" lon="6.05416">
        <ele>1422.4</ele>
        <time>2015-12-15T08:30:24Z</time>
      </trkpt>
      <trkpt lat="45.5959" lon="6.05418">
        <ele>1420.1</ele>
        <time>2015-12-15T08:30:34Z</time>
      </trkpt>
      <trkpt lat="45.59599" lon="6.05416">
        <ele>1418.3</ele>
        <time>2015-12-15T08:30:43Z</time>
      </trkpt>
      <trkpt lat="45.59608" lon="6.05417">
        <ele>1419</ele>
        <time>2015-12-15T08:30:52Z</time>
      </trkpt>
      <trkpt lat="45.59617" lon="6.05421">
        <ele>1420.9</ele>
        <time>2015-12-15T08:31:05Z</time>
      </trkpt>
      <trkpt lat="45.59626" lon="6.05426">
        <ele>1425.5</ele>
        <time>2015-12-15T08:31:17Z</time>
      </trkpt>
      <trkpt lat="45.59634" lon="6.05433">
        <ele>1428.7</ele>
        <time>2015-12-15T08:31:27Z</time>
      </trkpt>
      <trkpt lat="45.59644" lon="6.05435">
        <ele>1425.4</ele>
        <time>2015-12-15T08:31:37Z</time>
      </trkpt>
      <trkpt lat="45.59652" lon="6.0544">
        <ele>1424.9</ele>
        <time>2015-12-15T08:31:46Z</time>
      </trkpt>
      <trkpt lat="45.59661" lon="6.05446">
        <ele>1424.8</ele>
        <time>2015-12-15T08:31:54Z</time>
      </trkpt>
      <trkpt lat="45.59671" lon="6.05449">
        <ele>1426.8</ele>
        <time>2015-12-15T08:32:03Z</time>
      </trkpt>
      <trkpt lat="45.59679" lon="6.05456">
        <ele>1428.2</ele>
        <time>2015-12-15T08:32:13Z</time>
      </trkpt>
      <trkpt lat="45.59688" lon="6.05462">
        <ele>1428.6</ele>
        <time>2015-12-15T08:32:23Z</time>
      </trkpt>
      <trkpt lat="45.59697" lon="6.05468">
        <ele>1427.7</ele>
        <time>2015-12-15T08:32:38Z</time>
      </trkpt>
      <trkpt lat="45.59706" lon="6.0547">
        <ele>1426.3</ele>
        <time>2015-12-15T08:32:47Z</time>
      </trkpt>
      <trkpt lat="45.59715" lon="6.0547">
        <ele>1424</ele>
        <time>2015-12-15T08:32:56Z</time>
      </trkpt>
      <trkpt lat="45.59724" lon="6.0547">
        <ele>1426.2</ele>
        <time>2015-12-15T08:33:08Z</time>
      </trkpt>
      <trkpt lat="45.59733" lon="6.05473">
        <ele>1428.9</ele>
        <time>2015-12-15T08:33:18Z</time>
      </trkpt>
      <trkpt lat="45.59743" lon="6.05474">
        <ele>1431.4</ele>
        <time>2015-12-15T08:33:28Z</time>
      </trkpt>
      <trkpt lat="45.59752" lon="6.05473">
        <ele>1431.5</ele>
        <time>2015-12-15T08:33:40Z</time>
      </trkpt>
      <trkpt lat="45.59762" lon="6.05476">
        <ele>1431.9</ele>
        <time>2015-12-15T08:33:51Z</time>
      </trkpt>
      <trkpt lat="45.5977" lon="6.05479">
        <ele>1430.7</ele>
        <time>2015-12-15T08:34:02Z</time>
      </trkpt>
      <trkpt lat="45.59779" lon="6.05479">
        <ele>1430.6</ele>
        <time>2015-12-15T08:34:11Z</time>
      </trkpt>
      <trkpt lat="45.59788" lon="6.0548">
        <ele>1430.9</ele>
        <time>2015-12-15T08:34:20Z</time>
      </trkpt>
      <trkpt lat="45.59797" lon="6.05485">
        <ele>1432.9</ele>
        <time>2015-12-15T08:34:30Z</time>
      </trkpt>
      <trkpt lat="45.59806" lon="6.0549">
        <ele>1432.9</ele>
        <time>2015-12-15T08:34:42Z</time>
      </trkpt>
      <trkpt lat="45.59815" lon="6.05496">
        <ele>1434.5</ele>
        <time>2015-12-15T08:34:55Z</time>
      </trkpt>
      <trkpt lat="45.59824" lon="6.05499">
        <ele>1435.6</ele>
        <time>2015-12-15T08:35:16Z</time>
      </trkpt>
      <trkpt lat="45.59833" lon="6.05504">
        <ele>1437.1</ele>
        <time>2015-12-15T08:35:33Z</time>
      </trkpt>
      <trkpt lat="45.59842" lon="6.05506">
        <ele>1435.3</ele>
        <time>2015-12-15T08:35:45Z</time>
      </trkpt>
      <trkpt lat="45.59852" lon="6.05506">
        <ele>1430.8</ele>
        <time>2015-12-15T08:35:56Z</time>
      </trkpt>
      <trkpt lat="45.59862" lon="6.05505">
        <ele>1429.9</ele>
        <time>2015-12-15T08:36:06Z</time>
      </trkpt>
      <trkpt lat="45.59871" lon="6.05507">
        <ele>1429.1</ele>
        <time>2015-12-15T08:36:16Z</time>
      </trkpt>
      <trkpt lat="45.59881" lon="6.05509">
        <ele>1429.5</ele>
        <time>2015-12-15T08:36:25Z</time>
      </trkpt>
      <trkpt lat="45.59891" lon="6.05511">
        <ele>1430</ele>
        <time>2015-12-15T08:36:35Z</time>
      </trkpt>
      <trkpt lat="45.599" lon="6.05512">
        <ele>1431.5</ele>
        <time>2015-12-15T08:36:45Z</time>
      </trkpt>
      <trkpt lat="45.59908" lon="6.05519">
        <ele>1435</ele>
        <time>2015-12-15T08:36:57Z</time>
      </trkpt>
      <trkpt lat="45.59917" lon="6.05525">
        <ele>1435.1</ele>
        <time>2015-12-15T08:37:08Z</time>
      </trkpt>
      <trkpt lat="45.59925" lon="6.05531">
        <ele>1434.1</ele>
        <time>2015-12-15T08:37:17Z</time>
      </trkpt>
      <trkpt lat="45.59935" lon="6.05534">
        <ele>1433.9</ele>
        <time>2015-12-15T08:37:26Z</time>
      </trkpt>
      <trkpt lat="45.59944" lon="6.05538">
        <ele>1433.9</ele>
        <time>2015-12-15T08:37:36Z</time>
      </trkpt>
      <trkpt lat="45.59952" lon="6.05546">
        <ele>1433.9</ele>
        <time>2015-12-15T08:37:45Z</time>
      </trkpt>
      <trkpt lat="45.5996" lon="6.05553">
        <ele>1436.3</ele>
        <time>2015-12-15T08:37:53Z</time>
      </trkpt>
      <trkpt lat="45.59969" lon="6.05558">
        <ele>1436.4</ele>
        <time>2015-12-15T08:38:01Z</time>
      </trkpt>
      <trkpt lat="45.59978" lon="6.05561">
        <ele>1438.1</ele>
        <time>2015-12-15T08:38:10Z</time>
      </trkpt>
      <trkpt lat="45.59986" lon="6.05566">
        <ele>1438.7</ele>
        <time>2015-12-15T08:38:18Z</time>
      </trkpt>
      <trkpt lat="45.59996" lon="6.05569">
        <ele>1437.7</ele>
        <time>2015-12-15T08:38:28Z</time>
      </trkpt>
      <trkpt lat="45.60003" lon="6.05577">
        <ele>1438.9</ele>
        <time>2015-12-15T08:38:37Z</time>
      </trkpt>
      <trkpt lat="45.60012" lon="6.0558">
        <ele>1440.9</ele>
        <time>2015-12-15T08:38:46Z</time>
      </trkpt>
      <trkpt lat="45.6002" lon="6.05588">
        <ele>1441.2</ele>
        <time>2015-12-15T08:38:55Z</time>
      </trkpt>
      <trkpt lat="45.60028" lon="6.05594">
        <ele>1444.4</ele>
        <time>2015-12-15T08:39:06Z</time>
      </trkpt>
      <trkpt lat="45.60037" lon="6.05601">
        <ele>1446.6</ele>
        <time>2015-12-15T08:39:15Z</time>
      </trkpt>
      <trkpt lat="45.60046" lon="6.05606">
        <ele>1446.4</ele>
        <time>2015-12-15T08:39:25Z</time>
      </trkpt>
      <trkpt lat="45.60054" lon="6.05612">
        <ele>1448.8</ele>
        <time>2015-12-15T08:39:42Z</time>
      </trkpt>
      <trkpt lat="45.60064" lon="6.05613">
        <ele>1448.8</ele>
        <time>2015-12-15T08:39:53Z</time>
      </trkpt>
      <trkpt lat="45.60073" lon="6.05617">
        <ele>1449.1</ele>
        <time>2015-12-15T08:40:05Z</time>
      </trkpt>
      <trkpt lat="45.60082" lon="6.0562">
        <ele>1451</ele>
        <time>2015-12-15T08:40:17Z</time>
      </trkpt>
      <trkpt lat="45.60091" lon="6.05626">
        <ele>1456.4</ele>
        <time>2015-12-15T08:40:28Z</time>
      </trkpt>
      <trkpt lat="45.601" lon="6.05629">
        <ele>1457.5</ele>
        <time>2015-12-15T08:40:41Z</time>
      </trkpt>
      <trkpt lat="45.6011" lon="6.05631">
        <ele>1455.2</ele>
        <time>2015-12-15T08:40:52Z</time>
      </trkpt>
      <trkpt lat="45.60118" lon="6.05632">
        <ele>1454.7</ele>
        <time>2015-12-15T08:41:03Z</time>
      </trkpt>
      <trkpt lat="45.60128" lon="6.05634">
        <ele>1457.6</ele>
        <time>2015-12-15T08:41:14Z</time>
      </trkpt>
      <trkpt lat="45.60137" lon="6.05634">
        <ele>1458</ele>
        <time>2015-12-15T08:41:22Z</time>
      </trkpt>
      <trkpt lat="45.60146" lon="6.05637">
        <ele>1458</ele>
        <time>2015-12-15T08:41:30Z</time>
      </trkpt>
      <trkpt lat="45.60156" lon="6.05637">
        <ele>1459.3</ele>
        <time>2015-12-15T08:41:41Z</time>
      </trkpt>
      <trkpt lat="45.60165" lon="6.05636">
        <ele>1465.4</ele>
        <time>2015-12-15T08:41:55Z</time>
      </trkpt>
      <trkpt lat="45.60173" lon="6.0563">
        <ele>1461.4</ele>
        <time>2015-12-15T08:42:16Z</time>
      </trkpt>
      <trkpt lat="45.6018" lon="6.05622">
        <ele>1460.1</ele>
        <time>2015-12-15T08:42:32Z</time>
      </trkpt>
      <trkpt lat="45.60185" lon="6.0561">
        <ele>1456.7</ele>
        <time>2015-12-15T08:42:47Z</time>
      </trkpt>
      <trkpt lat="45.6019" lon="6.05598">
        <ele>1457</ele>
        <time>2015-12-15T08:42:58Z</time>
      </trkpt>
      <trkpt lat="45.60196" lon="6.05588">
        <ele>1457.5</ele>
        <time>2015-12-15T08:43:09Z</time>
      </trkpt>
      <trkpt lat="45.60204" lon="6.0558">
        <ele>1458.8</ele>
        <time>2015-12-15T08:43:22Z</time>
      </trkpt>
      <trkpt lat="45.60213" lon="6.0558">
        <ele>1456.7</ele>
        <time>2015-12-15T08:44:27Z</time>
      </trkpt>
      <trkpt lat="45.60222" lon="6.05575">
        <ele>1465.4</ele>
        <time>2015-12-15T08:44:47Z</time>
      </trkpt>
      <trkpt lat="45.6023" lon="6.0557">
        <ele>1469.5</ele>
        <time>2015-12-15T08:45:01Z</time>
      </trkpt>
      <trkpt lat="45.60239" lon="6.0557">
        <ele>1475.5</ele>
        <time>2015-12-15T08:45:22Z</time>
      </trkpt>
      <trkpt lat="45.60248" lon="6.05571">
        <ele>1479.5</ele>
        <time>2015-12-15T08:45:38Z</time>
      </trkpt>
      <trkpt lat="45.60257" lon="6.05575">
        <ele>1482.3</ele>
        <time>2015-12-15T08:45:52Z</time>
      </trkpt>
      <trkpt lat="45.60267" lon="6.05576">
        <ele>1483.4</ele>
        <time>2015-12-15T08:46:02Z</time>
      </trkpt>
      <trkpt lat="45.60276" lon="6.05579">
        <ele>1479.9</ele>
        <time>2015-12-15T08:46:15Z</time>
      </trkpt>
      <trkpt lat="45.60285" lon="6.05584">
        <ele>1482.6</ele>
        <time>2015-12-15T08:46:28Z</time>
      </trkpt>
      <trkpt lat="45.60294" lon="6.05586">
        <ele>1484.3</ele>
        <time>2015-12-15T08:46:42Z</time>
      </trkpt>
      <trkpt lat="45.60302" lon="6.05589">
        <ele>1483.7</ele>
        <time>2015-12-15T08:46:54Z</time>
      </trkpt>
      <trkpt lat="45.60312" lon="6.05589">
        <ele>1488.6</ele>
        <time>2015-12-15T08:47:10Z</time>
      </trkpt>
      <trkpt lat="45.6032" lon="6.05593">
        <ele>1490.1</ele>
        <time>2015-12-15T08:47:23Z</time>
      </trkpt>
      <trkpt lat="45.60328" lon="6.056">
        <ele>1486.8</ele>
        <time>2015-12-15T08:47:37Z</time>
      </trkpt>
      <trkpt lat="45.60336" lon="6.05606">
        <ele>1484</ele>
        <time>2015-12-15T08:47:50Z</time>
      </trkpt>
      <trkpt lat="45.60345" lon="6.05608">
        <ele>1483.6</ele>
        <time>2015-12-15T08:48:02Z</time>
      </trkpt>
      <trkpt lat="45.60353" lon="6.05615">
        <ele>1484</ele>
        <time>2015-12-15T08:48:12Z</time>
      </trkpt>
      <trkpt lat="45.60363" lon="6.0562">
        <ele>1483.9</ele>
        <time>2015-12-15T08:48:23Z</time>
      </trkpt>
      <trkpt lat="45.60373" lon="6.05619">
        <ele>1482.9</ele>
        <time>2015-12-15T08:48:35Z</time>
      </trkpt>
      <trkpt lat="45.60382" lon="6.05618">
        <ele>1484.9</ele>
        <time>2015-12-15T08:48:49Z</time>
      </trkpt>
      <trkpt lat="45.60391" lon="6.05623">
        <ele>1486.5</ele>
        <time>2015-12-15T08:49:02Z</time>
      </trkpt>
      <trkpt lat="45.604" lon="6.05618">
        <ele>1487.2</ele>
        <time>2015-12-15T08:49:11Z</time>
      </trkpt>
      <trkpt lat="45.60409" lon="6.05617">
        <ele>1486.7</ele>
        <time>2015-12-15T08:49:22Z</time>
      </trkpt>
      <trkpt lat="45.60418" lon="6.05612">
        <ele>1489.5</ele>
        <time>2015-12-15T08:49:39Z</time>
      </trkpt>
      <trkpt lat="45.60426" lon="6.05619">
        <ele>1493.3</ele>
        <time>2015-12-15T08:49:59Z</time>
      </trkpt>
      <trkpt lat="45.60434" lon="6.05626">
        <ele>1502.1</ele>
        <time>2015-12-15T08:50:30Z</time>
      </trkpt>
      <trkpt lat="45.60443" lon="6.05627">
        <ele>1505.6</ele>
        <time>2015-12-15T08:51:07Z</time>
      </trkpt>
      <trkpt lat="45.60452" lon="6.05623">
        <ele>1504.4</ele>
        <time>2015-12-15T08:51:26Z</time>
      </trkpt>
      <trkpt lat="45.60462" lon="6.05624">
        <ele>1505.6</ele>
        <time>2015-12-15T08:51:40Z</time>
      </trkpt>
      <trkpt lat="45.60471" lon="6.05625">
        <ele>1507</ele>
        <time>2015-12-15T08:52:22Z</time>
      </trkpt>
      <trkpt lat="45.6048" lon="6.0563">
        <ele>1506.4</ele>
        <time>2015-12-15T08:53:12Z</time>
      </trkpt>
      <trkpt lat="45.60489" lon="6.05631">
        <ele>1506.2</ele>
        <time>2015-12-15T08:53:23Z</time>
      </trkpt>
      <trkpt lat="45.60498" lon="6.05633">
        <ele>1509.7</ele>
        <time>2015-12-15T08:53:35Z</time>
      </trkpt>
      <trkpt lat="45.60508" lon="6.05632">
        <ele>1512.3</ele>
        <time>2015-12-15T08:53:48Z</time>
      </trkpt>
      <trkpt lat="45.60517" lon="6.0563">
        <ele>1511.9</ele>
        <time>2015-12-15T08:53:58Z</time>
      </trkpt>
      <trkpt lat="45.60525" lon="6.05625">
        <ele>1509</ele>
        <time>2015-12-15T08:54:15Z</time>
      </trkpt>
      <trkpt lat="45.60535" lon="6.05624">
        <ele>1513</ele>
        <time>2015-12-15T08:54:32Z</time>
      </trkpt>
      <trkpt lat="45.60544" lon="6.05624">
        <ele>1517.2</ele>
        <time>2015-12-15T08:54:45Z</time>
      </trkpt>
      <trkpt lat="45.60553" lon="6.05627">
        <ele>1522.1</ele>
        <time>2015-12-15T08:55:15Z</time>
      </trkpt>
      <trkpt lat="45.60562" lon="6.05628">
        <ele>1527</ele>
        <time>2015-12-15T08:55:30Z</time>
      </trkpt>
      <trkpt lat="45.6057" lon="6.05621">
        <ele>1522.1</ele>
        <time>2015-12-15T08:55:44Z</time>
      </trkpt>
      <trkpt lat="45.60578" lon="6.05613">
        <ele>1519.3</ele>
        <time>2015-12-15T08:55:55Z</time>
      </trkpt>
      <trkpt lat="45.60587" lon="6.0561">
        <ele>1516.6</ele>
        <time>2015-12-15T08:56:17Z</time>
      </trkpt>
      <trkpt lat="45.60596" lon="6.05606">
        <ele>1514.6</ele>
        <time>2015-12-15T08:56:35Z</time>
      </trkpt>
      <trkpt lat="45.60605" lon="6.05601">
        <ele>1514.3</ele>
        <time>2015-12-15T08:56:49Z</time>
      </trkpt>
      <trkpt lat="45.60615" lon="6.05601">
        <ele>1517.1</ele>
        <time>2015-12-15T08:57:03Z</time>
      </trkpt>
      <trkpt lat="45.60623" lon="6.05598">
        <ele>1522.3</ele>
        <time>2015-12-15T08:57:15Z</time>
      </trkpt>
      <trkpt lat="45.60633" lon="6.05596">
        <ele>1522.2</ele>
        <time>2015-12-15T08:57:28Z</time>
      </trkpt>
      <trkpt lat="45.60641" lon="6.05589">
        <ele>1519.6</ele>
        <time>2015-12-15T08:57:41Z</time>
      </trkpt>
      <trkpt lat="45.6065" lon="6.05584">
        <ele>1517.8</ele>
        <time>2015-12-15T08:57:50Z</time>
      </trkpt>
      <trkpt lat="45.60659" lon="6.05581">
        <ele>1521.6</ele>
        <time>2015-12-15T08:58:02Z</time>
      </trkpt>
      <trkpt lat="45.60668" lon="6.05579">
        <ele>1519.5</ele>
        <time>2015-12-15T08:58:15Z</time>
      </trkpt>
      <trkpt lat="45.60678" lon="6.05576">
        <ele>1519.9</ele>
        <time>2015-12-15T08:58:25Z</time>
      </trkpt>
      <trkpt lat="45.60688" lon="6.05574">
        <ele>1523.1</ele>
        <time>2015-12-15T08:58:35Z</time>
      </trkpt>
      <trkpt lat="45.60697" lon="6.0557">
        <ele>1525.1</ele>
        <time>2015-12-15T08:58:46Z</time>
      </trkpt>
      <trkpt lat="45.60706" lon="6.05572">
        <ele>1528.8</ele>
        <time>2015-12-15T08:59:01Z</time>
      </trkpt>
      <trkpt lat="45.60712" lon="6.05582">
        <ele>1534.8</ele>
        <time>2015-12-15T08:59:18Z</time>
      </trkpt>
      <trkpt lat="45.60721" lon="6.05585">
        <ele>1541</ele>
        <time>2015-12-15T08:59:37Z</time>
      </trkpt>
      <trkpt lat="45.60728" lon="6.05578">
        <ele>1537.8</ele>
        <time>2015-12-15T08:59:53Z</time>
      </trkpt>
      <trkpt lat="45.60737" lon="6.05571">
        <ele>1538.9</ele>
        <time>2015-12-15T09:00:07Z</time>
      </trkpt>
      <trkpt lat="45.60746" lon="6.05567">
        <ele>1541.7</ele>
        <time>2015-12-15T09:00:20Z</time>
      </trkpt>
      <trkpt lat="45.60754" lon="6.05563">
        <ele>1542.1</ele>
        <time>2015-12-15T09:00:33Z</time>
      </trkpt>
      <trkpt lat="45.6076" lon="6.05552">
        <ele>1541.7</ele>
        <time>2015-12-15T09:00:46Z</time>
      </trkpt>
      <trkpt lat="45.60768" lon="6.05547">
        <ele>1545.2</ele>
        <time>2015-12-15T09:00:59Z</time>
      </trkpt>
      <trkpt lat="45.60776" lon="6.05541">
        <ele>1547</ele>
        <time>2015-12-15T09:01:10Z</time>
      </trkpt>
      <trkpt lat="45.60786" lon="6.05538">
        <ele>1544.3</ele>
        <time>2015-12-15T09:01:25Z</time>
      </trkpt>
      <trkpt lat="45.60794" lon="6.05535">
        <ele>1546.4</ele>
        <time>2015-12-15T09:01:36Z</time>
      </trkpt>
      <trkpt lat="45.60803" lon="6.05529">
        <ele>1545.7</ele>
        <time>2015-12-15T09:01:50Z</time>
      </trkpt>
      <trkpt lat="45.60812" lon="6.05529">
        <ele>1548.5</ele>
        <time>2015-12-15T09:02:06Z</time>
      </trkpt>
      <trkpt lat="45.60821" lon="6.05528">
        <ele>1548.9</ele>
        <time>2015-12-15T09:02:15Z</time>
      </trkpt>
      <trkpt lat="45.6083" lon="6.05526">
        <ele>1546.9</ele>
        <time>2015-12-15T09:02:24Z</time>
      </trkpt>
      <trkpt lat="45.60838" lon="6.05518">
        <ele>1546.5</ele>
        <time>2015-12-15T09:02:34Z</time>
      </trkpt>
      <trkpt lat="45.60847" lon="6.05518">
        <ele>1545.4</ele>
        <time>2015-12-15T09:02:47Z</time>
      </trkpt>
      <trkpt lat="45.60857" lon="6.05517">
        <ele>1547.6</ele>
        <time>2015-12-15T09:02:57Z</time>
      </trkpt>
      <trkpt lat="45.60866" lon="6.05513">
        <ele>1547.8</ele>
        <time>2015-12-15T09:03:08Z</time>
      </trkpt>
      <trkpt lat="45.60875" lon="6.0551">
        <ele>1548.4</ele>
        <time>2015-12-15T09:03:17Z</time>
      </trkpt>
      <trkpt lat="45.60884" lon="6.05507">
        <ele>1548.1</ele>
        <time>2015-12-15T09:03:28Z</time>
      </trkpt>
      <trkpt lat="45.60894" lon="6.05507">
        <ele>1549.3</ele>
        <time>2015-12-15T09:03:38Z</time>
      </trkpt>
      <trkpt lat="45.60903" lon="6.05503">
        <ele>1547.4</ele>
        <time>2015-12-15T09:03:49Z</time>
      </trkpt>
      <trkpt lat="45.60912" lon="6.05506">
        <ele>1550</ele>
        <time>2015-12-15T09:04:01Z</time>
      </trkpt>
      <trkpt lat="45.6092" lon="6.05513">
        <ele>1551.7</ele>
        <time>2015-12-15T09:04:17Z</time>
      </trkpt>
      <trkpt lat="45.60929" lon="6.05519">
        <ele>1555.8</ele>
        <time>2015-12-15T09:04:32Z</time>
      </trkpt>
      <trkpt lat="45.60938" lon="6.05514">
        <ele>1555.3</ele>
        <time>2015-12-15T09:04:45Z</time>
      </trkpt>
      <trkpt lat="45.60947" lon="6.05515">
        <ele>1553.2</ele>
        <time>2015-12-15T09:04:57Z</time>
      </trkpt>
      <trkpt lat="45.60956" lon="6.05511">
        <ele>1552.3</ele>
        <time>2015-12-15T09:05:09Z</time>
      </trkpt>
      <trkpt lat="45.60965" lon="6.05512">
        <ele>1551.2</ele>
        <time>2015-12-15T09:05:21Z</time>
      </trkpt>
      <trkpt lat="45.60972" lon="6.05521">
        <ele>1554.9</ele>
        <time>2015-12-15T09:05:33Z</time>
      </trkpt>
      <trkpt lat="45.6098" lon="6.05525">
        <ele>1558.8</ele>
        <time>2015-12-15T09:05:46Z</time>
      </trkpt>
      <trkpt lat="45.6099" lon="6.05526">
        <ele>1561.8</ele>
        <time>2015-12-15T09:05:57Z</time>
      </trkpt>
      <trkpt lat="45.61" lon="6.05522">
        <ele>1563.2</ele>
        <time>2015-12-15T09:06:07Z</time>
      </trkpt>
      <trkpt lat="45.61009" lon="6.05522">
        <ele>1561.9</ele>
        <time>2015-12-15T09:06:19Z</time>
      </trkpt>
      <trkpt lat="45.61018" lon="6.05528">
        <ele>1563.7</ele>
        <time>2015-12-15T09:06:34Z</time>
      </trkpt>
      <trkpt lat="45.61025" lon="6.05534">
        <ele>1563.1</ele>
        <time>2015-12-15T09:06:47Z</time>
      </trkpt>
      <trkpt lat="45.61034" lon="6.05537">
        <ele>1564.4</ele>
        <time>2015-12-15T09:06:58Z</time>
      </trkpt>
      <trkpt lat="45.61044" lon="6.05541">
        <ele>1563</ele>
        <time>2015-12-15T09:07:10Z</time>
      </trkpt>
      <trkpt lat="45.61053" lon="6.05541">
        <ele>1563.7</ele>
        <time>2015-12-15T09:07:21Z</time>
      </trkpt>
      <trkpt lat="45.61062" lon="6.05542">
        <ele>1568.2</ele>
        <time>2015-12-15T09:07:35Z</time>
      </trkpt>
      <trkpt lat="45.61072" lon="6.05542">
        <ele>1568.8</ele>
        <time>2015-12-15T09:07:49Z</time>
      </trkpt>
      <trkpt lat="45.6108" lon="6.05537">
        <ele>1565.6</ele>
        <time>2015-12-15T09:08:03Z</time>
      </trkpt>
      <trkpt lat="45.61088" lon="6.05531">
        <ele>1564.2</ele>
        <time>2015-12-15T09:08:13Z</time>
      </trkpt>
      <trkpt lat="45.61098" lon="6.0553">
        <ele>1564.8</ele>
        <time>2015-12-15T09:08:22Z</time>
      </trkpt>
      <trkpt lat="45.61106" lon="6.05529">
        <ele>1566</ele>
        <time>2015-12-15T09:08:33Z</time>
      </trkpt>
      <trkpt lat="45.61115" lon="6.05529">
        <ele>1567.8</ele>
        <time>2015-12-15T09:08:43Z</time>
      </trkpt>
      <trkpt lat="45.61125" lon="6.05527">
        <ele>1568.8</ele>
        <time>2015-12-15T09:08:53Z</time>
      </trkpt>
      <trkpt lat="45.61134" lon="6.05531">
        <ele>1568.9</ele>
        <time>2015-12-15T09:09:02Z</time>
      </trkpt>
      <trkpt lat="45.61144" lon="6.05534">
        <ele>1568.9</ele>
        <time>2015-12-15T09:09:11Z</time>
      </trkpt>
      <trkpt lat="45.61153" lon="6.05535">
        <ele>1569.9</ele>
        <time>2015-12-15T09:09:21Z</time>
      </trkpt>
      <trkpt lat="45.61161" lon="6.05543">
        <ele>1570.7</ele>
        <time>2015-12-15T09:09:31Z</time>
      </trkpt>
      <trkpt lat="45.61169" lon="6.05548">
        <ele>1572.2</ele>
        <time>2015-12-15T09:09:40Z</time>
      </trkpt>
      <trkpt lat="45.61177" lon="6.05555">
        <ele>1573.5</ele>
        <time>2015-12-15T09:09:50Z</time>
      </trkpt>
      <trkpt lat="45.61186" lon="6.0556">
        <ele>1574.5</ele>
        <time>2015-12-15T09:10:00Z</time>
      </trkpt>
      <trkpt lat="45.61195" lon="6.05565">
        <ele>1575.8</ele>
        <time>2015-12-15T09:10:11Z</time>
      </trkpt>
      <trkpt lat="45.61204" lon="6.05566">
        <ele>1579.3</ele>
        <time>2015-12-15T09:10:26Z</time>
      </trkpt>
      <trkpt lat="45.61213" lon="6.05565">
        <ele>1580.6</ele>
        <time>2015-12-15T09:10:41Z</time>
      </trkpt>
      <trkpt lat="45.61223" lon="6.05563">
        <ele>1580</ele>
        <time>2015-12-15T09:10:54Z</time>
      </trkpt>
      <trkpt lat="45.61231" lon="6.05561">
        <ele>1578</ele>
        <time>2015-12-15T09:11:06Z</time>
      </trkpt>
      <trkpt lat="45.6124" lon="6.05557">
        <ele>1580.3</ele>
        <time>2015-12-15T09:11:19Z</time>
      </trkpt>
      <trkpt lat="45.61249" lon="6.05551">
        <ele>1580.6</ele>
        <time>2015-12-15T09:11:30Z</time>
      </trkpt>
      <trkpt lat="45.61257" lon="6.05545">
        <ele>1581.6</ele>
        <time>2015-12-15T09:11:44Z</time>
      </trkpt>
      <trkpt lat="45.61266" lon="6.05542">
        <ele>1580.5</ele>
        <time>2015-12-15T09:11:55Z</time>
      </trkpt>
      <trkpt lat="45.61275" lon="6.05548">
        <ele>1583.3</ele>
        <time>2015-12-15T09:12:09Z</time>
      </trkpt>
      <trkpt lat="45.61284" lon="6.0555">
        <ele>1582.9</ele>
        <time>2015-12-15T09:12:23Z</time>
      </trkpt>
      <trkpt lat="45.61294" lon="6.0555">
        <ele>1585.3</ele>
        <time>2015-12-15T09:12:35Z</time>
      </trkpt>
      <trkpt lat="45.61303" lon="6.05549">
        <ele>1583.5</ele>
        <time>2015-12-15T09:12:46Z</time>
      </trkpt>
      <trkpt lat="45.61313" lon="6.05549">
        <ele>1579.7</ele>
        <time>2015-12-15T09:12:59Z</time>
      </trkpt>
      <trkpt lat="45.61321" lon="6.05557">
        <ele>1584.3</ele>
        <time>2015-12-15T09:13:12Z</time>
      </trkpt>
      <trkpt lat="45.61328" lon="6.05565">
        <ele>1585.7</ele>
        <time>2015-12-15T09:13:21Z</time>
      </trkpt>
      <trkpt lat="45.61337" lon="6.05571">
        <ele>1586.4</ele>
        <time>2015-12-15T09:13:31Z</time>
      </trkpt>
      <trkpt lat="45.61346" lon="6.05573">
        <ele>1585.3</ele>
        <time>2015-12-15T09:13:42Z</time>
      </trkpt>
      <trkpt lat="45.61355" lon="6.05577">
        <ele>1584.9</ele>
        <time>2015-12-15T09:13:52Z</time>
      </trkpt>
      <trkpt lat="45.61364" lon="6.0558">
        <ele>1586.8</ele>
        <time>2015-12-15T09:14:02Z</time>
      </trkpt>
      <trkpt lat="45.61374" lon="6.05585">
        <ele>1587</ele>
        <time>2015-12-15T09:14:13Z</time>
      </trkpt>
      <trkpt lat="45.61382" lon="6.05591">
        <ele>1588.1</ele>
        <time>2015-12-15T09:14:23Z</time>
      </trkpt>
      <trkpt lat="45.6139" lon="6.05597">
        <ele>1585.1</ele>
        <time>2015-12-15T09:14:35Z</time>
      </trkpt>
      <trkpt lat="45.61398" lon="6.05603">
        <ele>1587.4</ele>
        <time>2015-12-15T09:14:47Z</time>
      </trkpt>
      <trkpt lat="45.61407" lon="6.05607">
        <ele>1588.9</ele>
        <time>2015-12-15T09:14:57Z</time>
      </trkpt>
      <trkpt lat="45.61417" lon="6.05607">
        <ele>1590.3</ele>
        <time>2015-12-15T09:15:08Z</time>
      </trkpt>
      <trkpt lat="45.61426" lon="6.05609">
        <ele>1591.1</ele>
        <time>2015-12-15T09:15:24Z</time>
      </trkpt>
      <trkpt lat="45.61435" lon="6.05605">
        <ele>1589</ele>
        <time>2015-12-15T09:15:49Z</time>
      </trkpt>
      <trkpt lat="45.61443" lon="6.05599">
        <ele>1599.2</ele>
        <time>2015-12-15T09:16:17Z</time>
      </trkpt>
      <trkpt lat="45.61451" lon="6.05591">
        <ele>1602</ele>
        <time>2015-12-15T09:16:36Z</time>
      </trkpt>
      <trkpt lat="45.61458" lon="6.05582">
        <ele>1611.4</ele>
        <time>2015-12-15T09:17:14Z</time>
      </trkpt>
      <trkpt lat="45.61464" lon="6.05591">
        <ele>1612.2</ele>
        <time>2015-12-15T09:19:52Z</time>
      </trkpt>
      <trkpt lat="45.61473" lon="6.05594">
        <ele>1612.4</ele>
        <time>2015-12-15T09:20:13Z</time>
      </trkpt>
      <trkpt lat="45.61482" lon="6.05593">
        <ele>1620.2</ele>
        <time>2015-12-15T09:20:26Z</time>
      </trkpt>
      <trkpt lat="45.61491" lon="6.05595">
        <ele>1623.9</ele>
        <time>2015-12-15T09:20:37Z</time>
      </trkpt>
      <trkpt lat="45.61499" lon="6.05602">
        <ele>1614</ele>
        <time>2015-12-15T09:21:03Z</time>
      </trkpt>
      <trkpt lat="45.61504" lon="6.05612">
        <ele>1608.7</ele>
        <time>2015-12-15T09:21:23Z</time>
      </trkpt>
      <trkpt lat="45.61511" lon="6.05621">
        <ele>1609.2</ele>
        <time>2015-12-15T09:21:43Z</time>
      </trkpt>
      <trkpt lat="45.61515" lon="6.05634">
        <ele>1609.2</ele>
        <time>2015-12-15T09:21:58Z</time>
      </trkpt>
      <trkpt lat="45.61524" lon="6.05637">
        <ele>1608.9</ele>
        <time>2015-12-15T09:22:14Z</time>
      </trkpt>
      <trkpt lat="45.61533" lon="6.05637">
        <ele>1608.9</ele>
        <time>2015-12-15T09:22:25Z</time>
      </trkpt>
      <trkpt lat="45.61542" lon="6.05639">
        <ele>1614.9</ele>
        <time>2015-12-15T09:22:59Z</time>
      </trkpt>
      <trkpt lat="45.61551" lon="6.05642">
        <ele>1616.8</ele>
        <time>2015-12-15T09:23:23Z</time>
      </trkpt>
      <trkpt lat="45.6156" lon="6.05645">
        <ele>1616.7</ele>
        <time>2015-12-15T09:23:32Z</time>
      </trkpt>
      <trkpt lat="45.61569" lon="6.05645">
        <ele>1617.4</ele>
        <time>2015-12-15T09:23:41Z</time>
      </trkpt>
      <trkpt lat="45.61579" lon="6.05644">
        <ele>1618.2</ele>
        <time>2015-12-15T09:23:50Z</time>
      </trkpt>
      <trkpt lat="45.61587" lon="6.05639">
        <ele>1617.4</ele>
        <time>2015-12-15T09:24:00Z</time>
      </trkpt>
      <trkpt lat="45.61597" lon="6.05639">
        <ele>1617.3</ele>
        <time>2015-12-15T09:24:11Z</time>
      </trkpt>
      <trkpt lat="45.61606" lon="6.05637">
        <ele>1617.8</ele>
        <time>2015-12-15T09:24:26Z</time>
      </trkpt>
      <trkpt lat="45.61613" lon="6.05627">
        <ele>1616.4</ele>
        <time>2015-12-15T09:24:47Z</time>
      </trkpt>
      <trkpt lat="45.61622" lon="6.0563">
        <ele>1616.3</ele>
        <time>2015-12-15T09:25:04Z</time>
      </trkpt>
      <trkpt lat="45.6163" lon="6.05626">
        <ele>1617.1</ele>
        <time>2015-12-15T09:25:25Z</time>
      </trkpt>
      <trkpt lat="45.61639" lon="6.0562">
        <ele>1616.1</ele>
        <time>2015-12-15T09:25:43Z</time>
      </trkpt>
      <trkpt lat="45.61648" lon="6.05614">
        <ele>1615.7</ele>
        <time>2015-12-15T09:25:56Z</time>
      </trkpt>
      <trkpt lat="45.61656" lon="6.05607">
        <ele>1613.1</ele>
        <time>2015-12-15T09:26:05Z</time>
      </trkpt>
      <trkpt lat="45.61664" lon="6.05603">
        <ele>1613.7</ele>
        <time>2015-12-15T09:26:14Z</time>
      </trkpt>
      <trkpt lat="45.61674" lon="6.05606">
        <ele>1617</ele>
        <time>2015-12-15T09:26:31Z</time>
      </trkpt>
      <trkpt lat="45.6168" lon="6.05615">
        <ele>1620.1</ele>
        <time>2015-12-15T09:26:55Z</time>
      </trkpt>
      <trkpt lat="45.61689" lon="6.05621">
        <ele>1618.6</ele>
        <time>2015-12-15T09:27:39Z</time>
      </trkpt>
      <trkpt lat="45.61698" lon="6.0562">
        <ele>1616.6</ele>
        <time>2015-12-15T09:28:02Z</time>
      </trkpt>
      <trkpt lat="45.61706" lon="6.05613">
        <ele>1611.3</ele>
        <time>2015-12-15T09:28:18Z</time>
      </trkpt>
      <trkpt lat="45.61715" lon="6.05612">
        <ele>1609.6</ele>
        <time>2015-12-15T09:28:31Z</time>
      </trkpt>
      <trkpt lat="45.61723" lon="6.05605">
        <ele>1610</ele>
        <time>2015-12-15T09:28:42Z</time>
      </trkpt>
      <trkpt lat="45.61732" lon="6.05598">
        <ele>1610.4</ele>
        <time>2015-12-15T09:28:53Z</time>
      </trkpt>
      <trkpt lat="45.6174" lon="6.05592">
        <ele>1609.8</ele>
        <time>2015-12-15T09:29:03Z</time>
      </trkpt>
      <trkpt lat="45.61749" lon="6.05586">
        <ele>1607.7</ele>
        <time>2015-12-15T09:29:15Z</time>
      </trkpt>
      <trkpt lat="45.61758" lon="6.05591">
        <ele>1606.3</ele>
        <time>2015-12-15T09:29:27Z</time>
      </trkpt>
      <trkpt lat="45.61765" lon="6.05598">
        <ele>1605.8</ele>
        <time>2015-12-15T09:29:39Z</time>
      </trkpt>
      <trkpt lat="45.61774" lon="6.05604">
        <ele>1608</ele>
        <time>2015-12-15T09:29:49Z</time>
      </trkpt>
      <trkpt lat="45.61781" lon="6.05614">
        <ele>1608.9</ele>
        <time>2015-12-15T09:30:00Z</time>
      </trkpt>
      <trkpt lat="45.61789" lon="6.0562">
        <ele>1609.9</ele>
        <time>2015-12-15T09:30:12Z</time>
      </trkpt>
      <trkpt lat="45.61798" lon="6.05616">
        <ele>1607.6</ele>
        <time>2015-12-15T09:30:23Z</time>
      </trkpt>
      <trkpt lat="45.61804" lon="6.05605">
        <ele>1600.1</ele>
        <time>2015-12-15T09:30:36Z</time>
      </trkpt>
      <trkpt lat="45.61811" lon="6.05596">
        <ele>1594.7</ele>
        <time>2015-12-15T09:30:48Z</time>
      </trkpt>
      <trkpt lat="45.61819" lon="6.05588">
        <ele>1592.5</ele>
        <time>2015-12-15T09:30:58Z</time>
      </trkpt>
      <trkpt lat="45.61827" lon="6.0558">
        <ele>1588.6</ele>
        <time>2015-12-15T09:31:08Z</time>
      </trkpt>
      <trkpt lat="45.61835" lon="6.05575">
        <ele>1585.2</ele>
        <time>2015-12-15T09:31:18Z</time>
      </trkpt>
      <trkpt lat="45.61845" lon="6.05574">
        <ele>1582.6</ele>
        <time>2015-12-15T09:31:32Z</time>
      </trkpt>
      <trkpt lat="45.61854" lon="6.0557">
        <ele>1582.6</ele>
        <time>2015-12-15T09:31:43Z</time>
      </trkpt>
      <trkpt lat="45.61862" lon="6.05562">
        <ele>1583.6</ele>
        <time>2015-12-15T09:32:01Z</time>
      </trkpt>
      <trkpt lat="45.61865" lon="6.0555">
        <ele>1577.3</ele>
        <time>2015-12-15T09:32:43Z</time>
      </trkpt>
      <trkpt lat="45.61871" lon="6.0554">
        <ele>1578.6</ele>
        <time>2015-12-15T09:33:35Z</time>
      </trkpt>
      <trkpt lat="45.6187" lon="6.05527">
        <ele>1575.4</ele>
        <time>2015-12-15T09:33:57Z</time>
      </trkpt>
      <trkpt lat="45.61866" lon="6.05516">
        <ele>1577.6</ele>
        <time>2015-12-15T09:34:23Z</time>
      </trkpt>
      <trkpt lat="45.6187" lon="6.05503">
        <ele>1578.2</ele>
        <time>2015-12-15T09:35:07Z</time>
      </trkpt>
      <trkpt lat="45.61876" lon="6.05494">
        <ele>1579.8</ele>
        <time>2015-12-15T09:35:36Z</time>
      </trkpt>
      <trkpt lat="45.61885" lon="6.05489">
        <ele>1582</ele>
        <time>2015-12-15T09:35:56Z</time>
      </trkpt>
      <trkpt lat="45.61887" lon="6.05476">
        <ele>1586.7</ele>
        <time>2015-12-15T09:36:19Z</time>
      </trkpt>
      <trkpt lat="45.61894" lon="6.05467">
        <ele>1586.2</ele>
        <time>2015-12-15T09:36:42Z</time>
      </trkpt>
      <trkpt lat="45.61899" lon="6.05455">
        <ele>1586.1</ele>
        <time>2015-12-15T09:37:02Z</time>
      </trkpt>
      <trkpt lat="45.61901" lon="6.05442">
        <ele>1584.3</ele>
        <time>2015-12-15T09:37:17Z</time>
      </trkpt>
      <trkpt lat="45.61908" lon="6.05433">
        <ele>1583.4</ele>
        <time>2015-12-15T09:37:29Z</time>
      </trkpt>
      <trkpt lat="45.61916" lon="6.05426">
        <ele>1584.6</ele>
        <time>2015-12-15T09:37:44Z</time>
      </trkpt>
      <trkpt lat="45.61924" lon="6.05419">
        <ele>1587</ele>
        <time>2015-12-15T09:37:57Z</time>
      </trkpt>
      <trkpt lat="45.61933" lon="6.05417">
        <ele>1592.8</ele>
        <time>2015-12-15T09:38:16Z</time>
      </trkpt>
      <trkpt lat="45.61942" lon="6.05414">
        <ele>1596.5</ele>
        <time>2015-12-15T09:42:09Z</time>
      </trkpt>
      <trkpt lat="45.61934" lon="6.05407">
        <ele>1599.4</ele>
        <time>2015-12-15T09:45:06Z</time>
      </trkpt>
      <trkpt lat="45.61944" lon="6.05408">
        <ele>1602.1</ele>
        <time>2015-12-15T09:48:16Z</time>
      </trkpt>
      <trkpt lat="45.61952" lon="6.054">
        <ele>1600</ele>
        <time>2015-12-15T09:48:26Z</time>
      </trkpt>
      <trkpt lat="45.61961" lon="6.05397">
        <ele>1597.6</ele>
        <time>2015-12-15T09:48:38Z</time>
      </trkpt>
      <trkpt lat="45.6197" lon="6.05396">
        <ele>1594.6</ele>
        <time>2015-12-15T09:49:08Z</time>
      </trkpt>
      <trkpt lat="45.61976" lon="6.05405">
        <ele>1591.3</ele>
        <time>2015-12-15T09:49:47Z</time>
      </trkpt>
      <trkpt lat="45.61973" lon="6.05417">
        <ele>1588.8</ele>
        <time>2015-12-15T09:51:00Z</time>
      </trkpt>
      <trkpt lat="45.61976" lon="6.0543">
        <ele>1584.1</ele>
        <time>2015-12-15T09:51:28Z</time>
      </trkpt>
      <trkpt lat="45.61984" lon="6.05421">
        <ele>1580.8</ele>
        <time>2015-12-15T09:51:49Z</time>
      </trkpt>
      <trkpt lat="45.61992" lon="6.05414">
        <ele>1578.4</ele>
        <time>2015-12-15T09:52:02Z</time>
      </trkpt>
      <trkpt lat="45.61998" lon="6.05404">
        <ele>1574.8</ele>
        <time>2015-12-15T09:52:12Z</time>
      </trkpt>
      <trkpt lat="45.62003" lon="6.05392">
        <ele>1569.9</ele>
        <time>2015-12-15T09:52:21Z</time>
      </trkpt>
      <trkpt lat="45.62008" lon="6.05381">
        <ele>1565.2</ele>
        <time>2015-12-15T09:52:32Z</time>
      </trkpt>
      <trkpt lat="45.62012" lon="6.05369">
        <ele>1560.4</ele>
        <time>2015-12-15T09:52:43Z</time>
      </trkpt>
      <trkpt lat="45.62017" lon="6.05358">
        <ele>1559.9</ele>
        <time>2015-12-15T09:52:52Z</time>
      </trkpt>
      <trkpt lat="45.62025" lon="6.05349">
        <ele>1559.6</ele>
        <time>2015-12-15T09:53:01Z</time>
      </trkpt>
      <trkpt lat="45.62031" lon="6.05339">
        <ele>1556.8</ele>
        <time>2015-12-15T09:53:20Z</time>
      </trkpt>
      <trkpt lat="45.62038" lon="6.0533">
        <ele>1550.9</ele>
        <time>2015-12-15T09:53:56Z</time>
      </trkpt>
      <trkpt lat="45.62046" lon="6.05324">
        <ele>1545.2</ele>
        <time>2015-12-15T09:54:15Z</time>
      </trkpt>
      <trkpt lat="45.62055" lon="6.05318">
        <ele>1542.2</ele>
        <time>2015-12-15T09:54:27Z</time>
      </trkpt>
      <trkpt lat="45.62063" lon="6.05311">
        <ele>1540.2</ele>
        <time>2015-12-15T09:54:37Z</time>
      </trkpt>
      <trkpt lat="45.62072" lon="6.05309">
        <ele>1536</ele>
        <time>2015-12-15T09:54:51Z</time>
      </trkpt>
      <trkpt lat="45.62079" lon="6.053">
        <ele>1533.6</ele>
        <time>2015-12-15T09:55:01Z</time>
      </trkpt>
      <trkpt lat="45.62084" lon="6.05289">
        <ele>1530.8</ele>
        <time>2015-12-15T09:55:11Z</time>
      </trkpt>
      <trkpt lat="45.62089" lon="6.05277">
        <ele>1527.2</ele>
        <time>2015-12-15T09:55:21Z</time>
      </trkpt>
      <trkpt lat="45.62097" lon="6.05271">
        <ele>1524.4</ele>
        <time>2015-12-15T09:55:34Z</time>
      </trkpt>
      <trkpt lat="45.62104" lon="6.05265">
        <ele>1519</ele>
        <time>2015-12-15T09:55:48Z</time>
      </trkpt>
      <trkpt lat="45.62111" lon="6.05255">
        <ele>1518.5</ele>
        <time>2015-12-15T09:56:06Z</time>
      </trkpt>
      <trkpt lat="45.62118" lon="6.05246">
        <ele>1521.5</ele>
        <time>2015-12-15T09:56:22Z</time>
      </trkpt>
      <trkpt lat="45.62126" lon="6.05253">
        <ele>1527.8</ele>
        <time>2015-12-15T09:56:44Z</time>
      </trkpt>
      <trkpt lat="45.62133" lon="6.05243">
        <ele>1527.6</ele>
        <time>2015-12-15T09:57:02Z</time>
      </trkpt>
      <trkpt lat="45.62139" lon="6.05233">
        <ele>1537.7</ele>
        <time>2015-12-15T09:57:24Z</time>
      </trkpt>
      <trkpt lat="45.62143" lon="6.05221">
        <ele>1542.6</ele>
        <time>2015-12-15T09:57:49Z</time>
      </trkpt>
      <trkpt lat="45.62145" lon="6.05208">
        <ele>1541.4</ele>
        <time>2015-12-15T09:58:08Z</time>
      </trkpt>
      <trkpt lat="45.6215" lon="6.05196">
        <ele>1540.2</ele>
        <time>2015-12-15T09:58:26Z</time>
      </trkpt>
      <trkpt lat="45.62153" lon="6.05184">
        <ele>1540.5</ele>
        <time>2015-12-15T09:58:43Z</time>
      </trkpt>
      <trkpt lat="45.62162" lon="6.05179">
        <ele>1541.8</ele>
        <time>2015-12-15T09:58:56Z</time>
      </trkpt>
      <trkpt lat="45.62169" lon="6.05171">
        <ele>1545.6</ele>
        <time>2015-12-15T09:59:17Z</time>
      </trkpt>
      <trkpt lat="45.62173" lon="6.05158">
        <ele>1550.8</ele>
        <time>2015-12-15T09:59:41Z</time>
      </trkpt>
      <trkpt lat="45.62179" lon="6.05148">
        <ele>1551.2</ele>
        <time>2015-12-15T10:00:00Z</time>
      </trkpt>
      <trkpt lat="45.62187" lon="6.05141">
        <ele>1551</ele>
        <time>2015-12-15T10:00:10Z</time>
      </trkpt>
      <trkpt lat="45.62194" lon="6.05131">
        <ele>1552.3</ele>
        <time>2015-12-15T10:00:22Z</time>
      </trkpt>
      <trkpt lat="45.62201" lon="6.05125">
        <ele>1556.3</ele>
        <time>2015-12-15T10:00:39Z</time>
      </trkpt>
      <trkpt lat="45.62209" lon="6.05118">
        <ele>1564.6</ele>
        <time>2015-12-15T10:01:13Z</time>
      </trkpt>
      <trkpt lat="45.62217" lon="6.05111">
        <ele>1568</ele>
        <time>2015-12-15T10:01:34Z</time>
      </trkpt>
      <trkpt lat="45.62222" lon="6.051">
        <ele>1568.9</ele>
        <time>2015-12-15T10:01:46Z</time>
      </trkpt>
      <trkpt lat="45.62228" lon="6.0509">
        <ele>1571.5</ele>
        <time>2015-12-15T10:02:01Z</time>
      </trkpt>
      <trkpt lat="45.62235" lon="6.05081">
        <ele>1574.7</ele>
        <time>2015-12-15T10:02:19Z</time>
      </trkpt>
      <trkpt lat="45.62242" lon="6.05072">
        <ele>1576.8</ele>
        <time>2015-12-15T10:02:32Z</time>
      </trkpt>
      <trkpt lat="45.62249" lon="6.05065">
        <ele>1578.1</ele>
        <time>2015-12-15T10:02:45Z</time>
      </trkpt>
      <trkpt lat="45.62258" lon="6.05061">
        <ele>1579.9</ele>
        <time>2015-12-15T10:02:59Z</time>
      </trkpt>
      <trkpt lat="45.62267" lon="6.05057">
        <ele>1580.6</ele>
        <time>2015-12-15T10:03:12Z</time>
      </trkpt>
      <trkpt lat="45.62276" lon="6.05053">
        <ele>1582.5</ele>
        <time>2015-12-15T10:03:26Z</time>
      </trkpt>
      <trkpt lat="45.62284" lon="6.05058">
        <ele>1588.5</ele>
        <time>2015-12-15T10:04:25Z</time>
      </trkpt>
      <trkpt lat="45.62294" lon="6.05062">
        <ele>1588.5</ele>
        <time>2015-12-15T10:07:14Z</time>
      </trkpt>
      <trkpt lat="45.62302" lon="6.0507">
        <ele>1588.5</ele>
        <time>2015-12-15T10:07:27Z</time>
      </trkpt>
      <trkpt lat="45.6231" lon="6.05078">
        <ele>1588.6</ele>
        <time>2015-12-15T10:07:39Z</time>
      </trkpt>
      <trkpt lat="45.62317" lon="6.05086">
        <ele>1590.8</ele>
        <time>2015-12-15T10:07:53Z</time>
      </trkpt>
      <trkpt lat="45.62325" lon="6.05093">
        <ele>1597.9</ele>
        <time>2015-12-15T10:08:27Z</time>
      </trkpt>
      <trkpt lat="45.62331" lon="6.05103">
        <ele>1601.1</ele>
        <time>2015-12-15T10:10:04Z</time>
      </trkpt>
      <trkpt lat="45.6234" lon="6.05101">
        <ele>1600</ele>
        <time>2015-12-15T10:10:28Z</time>
      </trkpt>
      <trkpt lat="45.62349" lon="6.051">
        <ele>1602.3</ele>
        <time>2015-12-15T10:10:38Z</time>
      </trkpt>
      <trkpt lat="45.62359" lon="6.05101">
        <ele>1605.7</ele>
        <time>2015-12-15T10:10:49Z</time>
      </trkpt>
      <trkpt lat="45.62368" lon="6.05101">
        <ele>1608.3</ele>
        <time>2015-12-15T10:10:58Z</time>
      </trkpt>
      <trkpt lat="45.62377" lon="6.05101">
        <ele>1611.5</ele>
        <time>2015-12-15T10:11:08Z</time>
      </trkpt>
      <trkpt lat="45.62386" lon="6.05103">
        <ele>1613.8</ele>
        <time>2015-12-15T10:11:19Z</time>
      </trkpt>
      <trkpt lat="45.62395" lon="6.05103">
        <ele>1617.6</ele>
        <time>2015-12-15T10:11:36Z</time>
      </trkpt>
      <trkpt lat="45.62404" lon="6.05099">
        <ele>1621.3</ele>
        <time>2015-12-15T10:11:50Z</time>
      </trkpt>
      <trkpt lat="45.62413" lon="6.05095">
        <ele>1623.8</ele>
        <time>2015-12-15T10:12:04Z</time>
      </trkpt>
      <trkpt lat="45.62421" lon="6.05089">
        <ele>1625.7</ele>
        <time>2015-12-15T10:12:18Z</time>
      </trkpt>
      <trkpt lat="45.62428" lon="6.05081">
        <ele>1627.6</ele>
        <time>2015-12-15T10:12:29Z</time>
      </trkpt>
      <trkpt lat="45.62436" lon="6.05071">
        <ele>1630.4</ele>
        <time>2015-12-15T10:12:41Z</time>
      </trkpt>
      <trkpt lat="45.62443" lon="6.05062">
        <ele>1631.3</ele>
        <time>2015-12-15T10:12:52Z</time>
      </trkpt>
      <trkpt lat="45.6245" lon="6.05051">
        <ele>1632</ele>
        <time>2015-12-15T10:13:02Z</time>
      </trkpt>
      <trkpt lat="45.62454" lon="6.05039">
        <ele>1632.9</ele>
        <time>2015-12-15T10:13:12Z</time>
      </trkpt>
      <trkpt lat="45.62461" lon="6.05029">
        <ele>1634.5</ele>
        <time>2015-12-15T10:13:22Z</time>
      </trkpt>
      <trkpt lat="45.62467" lon="6.05019">
        <ele>1635.7</ele>
        <time>2015-12-15T10:13:34Z</time>
      </trkpt>
      <trkpt lat="45.62474" lon="6.05009">
        <ele>1636.4</ele>
        <time>2015-12-15T10:13:44Z</time>
      </trkpt>
      <trkpt lat="45.62482" lon="6.05">
        <ele>1636.5</ele>
        <time>2015-12-15T10:13:52Z</time>
      </trkpt>
      <trkpt lat="45.62488" lon="6.0499">
        <ele>1636</ele>
        <time>2015-12-15T10:14:00Z</time>
      </trkpt>
      <trkpt lat="45.62494" lon="6.0498">
        <ele>1636.4</ele>
        <time>2015-12-15T10:14:09Z</time>
      </trkpt>
      <trkpt lat="45.625" lon="6.0497">
        <ele>1638.2</ele>
        <time>2015-12-15T10:14:18Z</time>
      </trkpt>
      <trkpt lat="45.62507" lon="6.04961">
        <ele>1640</ele>
        <time>2015-12-15T10:14:28Z</time>
      </trkpt>
      <trkpt lat="45.62513" lon="6.04951">
        <ele>1640.8</ele>
        <time>2015-12-15T10:14:37Z</time>
      </trkpt>
      <trkpt lat="45.6252" lon="6.04942">
        <ele>1641.4</ele>
        <time>2015-12-15T10:14:46Z</time>
      </trkpt>
      <trkpt lat="45.62527" lon="6.04931">
        <ele>1641.9</ele>
        <time>2015-12-15T10:14:55Z</time>
      </trkpt>
      <trkpt lat="45.62534" lon="6.04923">
        <ele>1641.6</ele>
        <time>2015-12-15T10:15:03Z</time>
      </trkpt>
      <trkpt lat="45.6254" lon="6.04914">
        <ele>1642.1</ele>
        <time>2015-12-15T10:15:11Z</time>
      </trkpt>
      <trkpt lat="45.62546" lon="6.04904">
        <ele>1642.5</ele>
        <time>2015-12-15T10:15:19Z</time>
      </trkpt>
      <trkpt lat="45.62553" lon="6.04893">
        <ele>1641.9</ele>
        <time>2015-12-15T10:15:27Z</time>
      </trkpt>
      <trkpt lat="45.62559" lon="6.04882">
        <ele>1641.4</ele>
        <time>2015-12-15T10:15:35Z</time>
      </trkpt>
      <trkpt lat="45.62564" lon="6.04872">
        <ele>1643.2</ele>
        <time>2015-12-15T10:15:43Z</time>
      </trkpt>
      <trkpt lat="45.6257" lon="6.04861">
        <ele>1645.2</ele>
        <time>2015-12-15T10:15:52Z</time>
      </trkpt>
      <trkpt lat="45.62577" lon="6.0485">
        <ele>1646.9</ele>
        <time>2015-12-15T10:16:02Z</time>
      </trkpt>
      <trkpt lat="45.62582" lon="6.0484">
        <ele>1648.5</ele>
        <time>2015-12-15T10:16:13Z</time>
      </trkpt>
      <trkpt lat="45.62588" lon="6.0483">
        <ele>1649.8</ele>
        <time>2015-12-15T10:16:23Z</time>
      </trkpt>
      <trkpt lat="45.62596" lon="6.04823">
        <ele>1652</ele>
        <time>2015-12-15T10:16:34Z</time>
      </trkpt>
      <trkpt lat="45.62604" lon="6.04816">
        <ele>1652.9</ele>
        <time>2015-12-15T10:16:45Z</time>
      </trkpt>
      <trkpt lat="45.62613" lon="6.04809">
        <ele>1652.8</ele>
        <time>2015-12-15T10:16:55Z</time>
      </trkpt>
      <trkpt lat="45.62621" lon="6.048">
        <ele>1651.8</ele>
        <time>2015-12-15T10:17:04Z</time>
      </trkpt>
      <trkpt lat="45.62629" lon="6.04793">
        <ele>1652.1</ele>
        <time>2015-12-15T10:17:12Z</time>
      </trkpt>
      <trkpt lat="45.62637" lon="6.04787">
        <ele>1651.7</ele>
        <time>2015-12-15T10:17:20Z</time>
      </trkpt>
      <trkpt lat="45.62647" lon="6.04783">
        <ele>1651.2</ele>
        <time>2015-12-15T10:17:28Z</time>
      </trkpt>
      <trkpt lat="45.62656" lon="6.04779">
        <ele>1651.2</ele>
        <time>2015-12-15T10:17:35Z</time>
      </trkpt>
      <trkpt lat="45.62665" lon="6.04774">
        <ele>1652.5</ele>
        <time>2015-12-15T10:17:43Z</time>
      </trkpt>
      <trkpt lat="45.62674" lon="6.04771">
        <ele>1655.5</ele>
        <time>2015-12-15T10:17:52Z</time>
      </trkpt>
      <trkpt lat="45.62683" lon="6.04767">
        <ele>1658.4</ele>
        <time>2015-12-15T10:18:01Z</time>
      </trkpt>
      <trkpt lat="45.62693" lon="6.04762">
        <ele>1659.8</ele>
        <time>2015-12-15T10:18:11Z</time>
      </trkpt>
      <trkpt lat="45.62701" lon="6.04755">
        <ele>1660.3</ele>
        <time>2015-12-15T10:18:20Z</time>
      </trkpt>
      <trkpt lat="45.62708" lon="6.04746">
        <ele>1661.4</ele>
        <time>2015-12-15T10:18:29Z</time>
      </trkpt>
      <trkpt lat="45.62714" lon="6.04736">
        <ele>1663</ele>
        <time>2015-12-15T10:18:39Z</time>
      </trkpt>
      <trkpt lat="45.62719" lon="6.04726">
        <ele>1664</ele>
        <time>2015-12-15T10:18:48Z</time>
      </trkpt>
      <trkpt lat="45.62725" lon="6.04715">
        <ele>1665.7</ele>
        <time>2015-12-15T10:18:58Z</time>
      </trkpt>
      <trkpt lat="45.62732" lon="6.04706">
        <ele>1667.5</ele>
        <time>2015-12-15T10:19:08Z</time>
      </trkpt>
      <trkpt lat="45.62739" lon="6.04697">
        <ele>1669.1</ele>
        <time>2015-12-15T10:19:19Z</time>
      </trkpt>
      <trkpt lat="45.62746" lon="6.04688">
        <ele>1670.3</ele>
        <time>2015-12-15T10:19:29Z</time>
      </trkpt>
      <trkpt lat="45.6275" lon="6.04677">
        <ele>1671.9</ele>
        <time>2015-12-15T10:19:41Z</time>
      </trkpt>
      <trkpt lat="45.62759" lon="6.04672">
        <ele>1674.9</ele>
        <time>2015-12-15T10:19:53Z</time>
      </trkpt>
      <trkpt lat="45.62765" lon="6.04661">
        <ele>1676.3</ele>
        <time>2015-12-15T10:20:04Z</time>
      </trkpt>
      <trkpt lat="45.6277" lon="6.04649">
        <ele>1678.2</ele>
        <time>2015-12-15T10:20:14Z</time>
      </trkpt>
      <trkpt lat="45.62777" lon="6.04642">
        <ele>1680.4</ele>
        <time>2015-12-15T10:20:24Z</time>
      </trkpt>
      <trkpt lat="45.62786" lon="6.04635">
        <ele>1683.2</ele>
        <time>2015-12-15T10:20:35Z</time>
      </trkpt>
      <trkpt lat="45.62792" lon="6.04625">
        <ele>1685.6</ele>
        <time>2015-12-15T10:20:46Z</time>
      </trkpt>
      <trkpt lat="45.62799" lon="6.04616">
        <ele>1687.6</ele>
        <time>2015-12-15T10:20:57Z</time>
      </trkpt>
      <trkpt lat="45.62806" lon="6.04606">
        <ele>1688.7</ele>
        <time>2015-12-15T10:21:07Z</time>
      </trkpt>
      <trkpt lat="45.62811" lon="6.04595">
        <ele>1692.1</ele>
        <time>2015-12-15T10:21:19Z</time>
      </trkpt>
      <trkpt lat="45.62817" lon="6.04585">
        <ele>1693.9</ele>
        <time>2015-12-15T10:21:30Z</time>
      </trkpt>
      <trkpt lat="45.62824" lon="6.04575">
        <ele>1696.2</ele>
        <time>2015-12-15T10:21:42Z</time>
      </trkpt>
      <trkpt lat="45.62831" lon="6.04566">
        <ele>1699.5</ele>
        <time>2015-12-15T10:21:57Z</time>
      </trkpt>
      <trkpt lat="45.62837" lon="6.04555">
        <ele>1702</ele>
        <time>2015-12-15T10:22:08Z</time>
      </trkpt>
      <trkpt lat="45.62844" lon="6.04546">
        <ele>1703.1</ele>
        <time>2015-12-15T10:22:17Z</time>
      </trkpt>
      <trkpt lat="45.62852" lon="6.04539">
        <ele>1704</ele>
        <time>2015-12-15T10:22:29Z</time>
      </trkpt>
      <trkpt lat="45.62861" lon="6.04537">
        <ele>1704.8</ele>
        <time>2015-12-15T10:22:41Z</time>
      </trkpt>
      <trkpt lat="45.62869" lon="6.0453">
        <ele>1706.1</ele>
        <time>2015-12-15T10:22:55Z</time>
      </trkpt>
      <trkpt lat="45.62874" lon="6.04518">
        <ele>1707.2</ele>
        <time>2015-12-15T10:23:08Z</time>
      </trkpt>
      <trkpt lat="45.62878" lon="6.04507">
        <ele>1710.9</ele>
        <time>2015-12-15T10:23:25Z</time>
      </trkpt>
      <trkpt lat="45.62877" lon="6.04494">
        <ele>1712.2</ele>
        <time>2015-12-15T10:23:43Z</time>
      </trkpt>
      <trkpt lat="45.62882" lon="6.04482">
        <ele>1712.3</ele>
        <time>2015-12-15T10:23:55Z</time>
      </trkpt>
      <trkpt lat="45.62889" lon="6.04473">
        <ele>1713</ele>
        <time>2015-12-15T10:24:07Z</time>
      </trkpt>
      <trkpt lat="45.62894" lon="6.04462">
        <ele>1713.4</ele>
        <time>2015-12-15T10:24:21Z</time>
      </trkpt>
      <trkpt lat="45.62897" lon="6.04449">
        <ele>1713.6</ele>
        <time>2015-12-15T10:24:35Z</time>
      </trkpt>
      <trkpt lat="45.62903" lon="6.04438">
        <ele>1714.4</ele>
        <time>2015-12-15T10:24:45Z</time>
      </trkpt>
      <trkpt lat="45.62909" lon="6.04428">
        <ele>1714.4</ele>
        <time>2015-12-15T10:24:53Z</time>
      </trkpt>
      <trkpt lat="45.62912" lon="6.04416">
        <ele>1713.7</ele>
        <time>2015-12-15T10:25:02Z</time>
      </trkpt>
      <trkpt lat="45.62912" lon="6.04402">
        <ele>1714.2</ele>
        <time>2015-12-15T10:25:12Z</time>
      </trkpt>
      <trkpt lat="45.62911" lon="6.04389">
        <ele>1716.4</ele>
        <time>2015-12-15T10:25:24Z</time>
      </trkpt>
      <trkpt lat="45.6291" lon="6.04376">
        <ele>1719.8</ele>
        <time>2015-12-15T10:25:36Z</time>
      </trkpt>
      <trkpt lat="45.62912" lon="6.04363">
        <ele>1721.2</ele>
        <time>2015-12-15T10:25:47Z</time>
      </trkpt>
      <trkpt lat="45.62915" lon="6.04349">
        <ele>1723.8</ele>
        <time>2015-12-15T10:26:00Z</time>
      </trkpt>
      <trkpt lat="45.62917" lon="6.04336">
        <ele>1727.5</ele>
        <time>2015-12-15T10:26:13Z</time>
      </trkpt>
      <trkpt lat="45.62918" lon="6.04323">
        <ele>1729.3</ele>
        <time>2015-12-15T10:26:24Z</time>
      </trkpt>
      <trkpt lat="45.62918" lon="6.0431">
        <ele>1731.1</ele>
        <time>2015-12-15T10:26:41Z</time>
      </trkpt>
      <trkpt lat="45.62917" lon="6.04296">
        <ele>1730</ele>
        <time>2015-12-15T10:27:00Z</time>
      </trkpt>
      <trkpt lat="45.6292" lon="6.04284">
        <ele>1730.3</ele>
        <time>2015-12-15T10:27:16Z</time>
      </trkpt>
      <trkpt lat="45.62924" lon="6.04271">
        <ele>1730.8</ele>
        <time>2015-12-15T10:27:36Z</time>
      </trkpt>
      <trkpt lat="45.6293" lon="6.04261">
        <ele>1731.9</ele>
        <time>2015-12-15T10:27:52Z</time>
      </trkpt>
      <trkpt lat="45.62936" lon="6.04251">
        <ele>1733.5</ele>
        <time>2015-12-15T10:28:08Z</time>
      </trkpt>
      <trkpt lat="45.6294" lon="6.04238">
        <ele>1734.3</ele>
        <time>2015-12-15T10:28:27Z</time>
      </trkpt>
      <trkpt lat="45.62937" lon="6.04226">
        <ele>1735.7</ele>
        <time>2015-12-15T10:28:46Z</time>
      </trkpt>
      <trkpt lat="45.62935" lon="6.04213">
        <ele>1735.2</ele>
        <time>2015-12-15T10:28:59Z</time>
      </trkpt>
      <trkpt lat="45.62936" lon="6.042">
        <ele>1738.9</ele>
        <time>2015-12-15T10:29:15Z</time>
      </trkpt>
      <trkpt lat="45.62939" lon="6.04188">
        <ele>1745</ele>
        <time>2015-12-15T10:29:33Z</time>
      </trkpt>
      <trkpt lat="45.62943" lon="6.04176">
        <ele>1748.6</ele>
        <time>2015-12-15T10:29:47Z</time>
      </trkpt>
      <trkpt lat="45.62947" lon="6.04163">
        <ele>1751.5</ele>
        <time>2015-12-15T10:30:01Z</time>
      </trkpt>
      <trkpt lat="45.62951" lon="6.04152">
        <ele>1753.5</ele>
        <time>2015-12-15T10:30:13Z</time>
      </trkpt>
      <trkpt lat="45.62956" lon="6.0414">
        <ele>1754.5</ele>
        <time>2015-12-15T10:30:24Z</time>
      </trkpt>
      <trkpt lat="45.62963" lon="6.04131">
        <ele>1754.8</ele>
        <time>2015-12-15T10:30:34Z</time>
      </trkpt>
      <trkpt lat="45.62972" lon="6.04129">
        <ele>1754.5</ele>
        <time>2015-12-15T10:30:46Z</time>
      </trkpt>
      <trkpt lat="45.6298" lon="6.04121">
        <ele>1753.7</ele>
        <time>2015-12-15T10:30:56Z</time>
      </trkpt>
      <trkpt lat="45.62988" lon="6.04113">
        <ele>1753.8</ele>
        <time>2015-12-15T10:31:05Z</time>
      </trkpt>
      <trkpt lat="45.62995" lon="6.04104">
        <ele>1752.6</ele>
        <time>2015-12-15T10:31:14Z</time>
      </trkpt>
      <trkpt lat="45.63002" lon="6.04096">
        <ele>1752.2</ele>
        <time>2015-12-15T10:31:23Z</time>
      </trkpt>
      <trkpt lat="45.6301" lon="6.04088">
        <ele>1752.5</ele>
        <time>2015-12-15T10:31:33Z</time>
      </trkpt>
      <trkpt lat="45.63017" lon="6.04079">
        <ele>1752.6</ele>
        <time>2015-12-15T10:31:43Z</time>
      </trkpt>
      <trkpt lat="45.63021" lon="6.04067">
        <ele>1752.5</ele>
        <time>2015-12-15T10:31:53Z</time>
      </trkpt>
      <trkpt lat="45.63025" lon="6.04054">
        <ele>1754.1</ele>
        <time>2015-12-15T10:32:04Z</time>
      </trkpt>
      <trkpt lat="45.63032" lon="6.04045">
        <ele>1755.2</ele>
        <time>2015-12-15T10:32:18Z</time>
      </trkpt>
      <trkpt lat="45.6304" lon="6.04038">
        <ele>1754.1</ele>
        <time>2015-12-15T10:32:29Z</time>
      </trkpt>
      <trkpt lat="45.63044" lon="6.04025">
        <ele>1753.5</ele>
        <time>2015-12-15T10:32:39Z</time>
      </trkpt>
      <trkpt lat="45.63046" lon="6.04011">
        <ele>1752.4</ele>
        <time>2015-12-15T10:32:48Z</time>
      </trkpt>
      <trkpt lat="45.63048" lon="6.03998">
        <ele>1751.5</ele>
        <time>2015-12-15T10:32:56Z</time>
      </trkpt>
      <trkpt lat="45.63048" lon="6.03984">
        <ele>1750.8</ele>
        <time>2015-12-15T10:33:04Z</time>
      </trkpt>
      <trkpt lat="45.63048" lon="6.03971">
        <ele>1751.7</ele>
        <time>2015-12-15T10:33:15Z</time>
      </trkpt>
      <trkpt lat="45.6305" lon="6.03958">
        <ele>1753</ele>
        <time>2015-12-15T10:33:28Z</time>
      </trkpt>
      <trkpt lat="45.63052" lon="6.03945">
        <ele>1755.8</ele>
        <time>2015-12-15T10:33:39Z</time>
      </trkpt>
      <trkpt lat="45.63054" lon="6.03932">
        <ele>1757.5</ele>
        <time>2015-12-15T10:33:51Z</time>
      </trkpt>
      <trkpt lat="45.63054" lon="6.03918">
        <ele>1760.4</ele>
        <time>2015-12-15T10:34:03Z</time>
      </trkpt>
      <trkpt lat="45.63055" lon="6.03905">
        <ele>1761.8</ele>
        <time>2015-12-15T10:34:14Z</time>
      </trkpt>
      <trkpt lat="45.63057" lon="6.03891">
        <ele>1763.2</ele>
        <time>2015-12-15T10:34:25Z</time>
      </trkpt>
      <trkpt lat="45.63058" lon="6.03878">
        <ele>1765.4</ele>
        <time>2015-12-15T10:34:35Z</time>
      </trkpt>
      <trkpt lat="45.63062" lon="6.03865">
        <ele>1768.2</ele>
        <time>2015-12-15T10:34:46Z</time>
      </trkpt>
      <trkpt lat="45.63063" lon="6.03851">
        <ele>1768.4</ele>
        <time>2015-12-15T10:34:59Z</time>
      </trkpt>
      <trkpt lat="45.63064" lon="6.03838">
        <ele>1769.5</ele>
        <time>2015-12-15T10:35:09Z</time>
      </trkpt>
      <trkpt lat="45.63062" lon="6.03825">
        <ele>1769.3</ele>
        <time>2015-12-15T10:35:18Z</time>
      </trkpt>
      <trkpt lat="45.63058" lon="6.03812">
        <ele>1768.9</ele>
        <time>2015-12-15T10:35:28Z</time>
      </trkpt>
      <trkpt lat="45.63052" lon="6.03801">
        <ele>1769.3</ele>
        <time>2015-12-15T10:35:39Z</time>
      </trkpt>
      <trkpt lat="45.63046" lon="6.03791">
        <ele>1770.8</ele>
        <time>2015-12-15T10:35:51Z</time>
      </trkpt>
      <trkpt lat="45.63039" lon="6.03783">
        <ele>1772.2</ele>
        <time>2015-12-15T10:36:03Z</time>
      </trkpt>
      <trkpt lat="45.63032" lon="6.03774">
        <ele>1775.7</ele>
        <time>2015-12-15T10:36:42Z</time>
      </trkpt>
      <trkpt lat="45.63027" lon="6.03763">
        <ele>1776.9</ele>
        <time>2015-12-15T10:36:54Z</time>
      </trkpt>
      <trkpt lat="45.63022" lon="6.03751">
        <ele>1777.3</ele>
        <time>2015-12-15T10:37:07Z</time>
      </trkpt>
      <trkpt lat="45.63017" lon="6.0374">
        <ele>1778.4</ele>
        <time>2015-12-15T10:37:20Z</time>
      </trkpt>
      <trkpt lat="45.63011" lon="6.03729">
        <ele>1780.2</ele>
        <time>2015-12-15T10:37:33Z</time>
      </trkpt>
      <trkpt lat="45.63006" lon="6.03717">
        <ele>1781.8</ele>
        <time>2015-12-15T10:37:45Z</time>
      </trkpt>
      <trkpt lat="45.63002" lon="6.03706">
        <ele>1783.4</ele>
        <time>2015-12-15T10:37:57Z</time>
      </trkpt>
      <trkpt lat="45.62999" lon="6.03693">
        <ele>1784.3</ele>
        <time>2015-12-15T10:38:09Z</time>
      </trkpt>
      <trkpt lat="45.62999" lon="6.0368">
        <ele>1785.6</ele>
        <time>2015-12-15T10:38:21Z</time>
      </trkpt>
      <trkpt lat="45.62998" lon="6.03666">
        <ele>1786.8</ele>
        <time>2015-12-15T10:38:33Z</time>
      </trkpt>
      <trkpt lat="45.63" lon="6.03653">
        <ele>1788.8</ele>
        <time>2015-12-15T10:38:44Z</time>
      </trkpt>
      <trkpt lat="45.63008" lon="6.03644">
        <ele>1790.3</ele>
        <time>2015-12-15T10:38:56Z</time>
      </trkpt>
      <trkpt lat="45.6301" lon="6.03632">
        <ele>1791.5</ele>
        <time>2015-12-15T10:39:09Z</time>
      </trkpt>
      <trkpt lat="45.6301" lon="6.03618">
        <ele>1792.5</ele>
        <time>2015-12-15T10:39:19Z</time>
      </trkpt>
      <trkpt lat="45.63011" lon="6.03606">
        <ele>1793.1</ele>
        <time>2015-12-15T10:39:30Z</time>
      </trkpt>
      <trkpt lat="45.63014" lon="6.03592">
        <ele>1793.5</ele>
        <time>2015-12-15T10:39:42Z</time>
      </trkpt>
      <trkpt lat="45.63017" lon="6.0358">
        <ele>1794</ele>
        <time>2015-12-15T10:39:53Z</time>
      </trkpt>
      <trkpt lat="45.63021" lon="6.03568">
        <ele>1795.4</ele>
        <time>2015-12-15T10:40:05Z</time>
      </trkpt>
      <trkpt lat="45.63025" lon="6.03556">
        <ele>1796.6</ele>
        <time>2015-12-15T10:40:16Z</time>
      </trkpt>
      <trkpt lat="45.63029" lon="6.03544">
        <ele>1797.2</ele>
        <time>2015-12-15T10:40:27Z</time>
      </trkpt>
      <trkpt lat="45.6303" lon="6.03531">
        <ele>1796.7</ele>
        <time>2015-12-15T10:40:37Z</time>
      </trkpt>
      <trkpt lat="45.63031" lon="6.03518">
        <ele>1796.6</ele>
        <time>2015-12-15T10:40:48Z</time>
      </trkpt>
      <trkpt lat="45.6303" lon="6.03505">
        <ele>1798.4</ele>
        <time>2015-12-15T10:40:58Z</time>
      </trkpt>
      <trkpt lat="45.63026" lon="6.03492">
        <ele>1800.3</ele>
        <time>2015-12-15T10:41:09Z</time>
      </trkpt>
      <trkpt lat="45.63023" lon="6.0348">
        <ele>1803.1</ele>
        <time>2015-12-15T10:41:21Z</time>
      </trkpt>
      <trkpt lat="45.6302" lon="6.03467">
        <ele>1805.8</ele>
        <time>2015-12-15T10:41:34Z</time>
      </trkpt>
      <trkpt lat="45.63018" lon="6.03454">
        <ele>1808.4</ele>
        <time>2015-12-15T10:41:48Z</time>
      </trkpt>
      <trkpt lat="45.63021" lon="6.03441">
        <ele>1809.6</ele>
        <time>2015-12-15T10:41:59Z</time>
      </trkpt>
      <trkpt lat="45.63026" lon="6.0343">
        <ele>1810.8</ele>
        <time>2015-12-15T10:42:09Z</time>
      </trkpt>
      <trkpt lat="45.63029" lon="6.03417">
        <ele>1811.9</ele>
        <time>2015-12-15T10:42:22Z</time>
      </trkpt>
      <trkpt lat="45.63033" lon="6.03405">
        <ele>1812.1</ele>
        <time>2015-12-15T10:43:09Z</time>
      </trkpt>
      <trkpt lat="45.63043" lon="6.03405">
        <ele>1808.5</ele>
        <time>2015-12-15T10:47:28Z</time>
      </trkpt>
      <trkpt lat="45.63051" lon="6.0341">
        <ele>1807.5</ele>
        <time>2015-12-15T10:47:35Z</time>
      </trkpt>
      <trkpt lat="45.63061" lon="6.03408">
        <ele>1805.9</ele>
        <time>2015-12-15T10:47:42Z</time>
      </trkpt>
      <trkpt lat="45.6307" lon="6.03405">
        <ele>1804.8</ele>
        <time>2015-12-15T10:47:51Z</time>
      </trkpt>
      <trkpt lat="45.6308" lon="6.03401">
        <ele>1802.9</ele>
        <time>2015-12-15T10:47:59Z</time>
      </trkpt>
      <trkpt lat="45.63088" lon="6.03395">
        <ele>1800.4</ele>
        <time>2015-12-15T10:48:07Z</time>
      </trkpt>
      <trkpt lat="45.63098" lon="6.03389">
        <ele>1798.5</ele>
        <time>2015-12-15T10:48:16Z</time>
      </trkpt>
      <trkpt lat="45.63107" lon="6.03385">
        <ele>1797.7</ele>
        <time>2015-12-15T10:48:25Z</time>
      </trkpt>
      <trkpt lat="45.63117" lon="6.03379">
        <ele>1798.2</ele>
        <time>2015-12-15T10:48:33Z</time>
      </trkpt>
      <trkpt lat="45.63126" lon="6.03375">
        <ele>1798.8</ele>
        <time>2015-12-15T10:48:41Z</time>
      </trkpt>
      <trkpt lat="45.63135" lon="6.03372">
        <ele>1798.5</ele>
        <time>2015-12-15T10:48:49Z</time>
      </trkpt>
      <trkpt lat="45.63144" lon="6.0337">
        <ele>1798.5</ele>
        <time>2015-12-15T10:48:56Z</time>
      </trkpt>
      <trkpt lat="45.63153" lon="6.03369">
        <ele>1798.4</ele>
        <time>2015-12-15T10:49:03Z</time>
      </trkpt>
      <trkpt lat="45.63163" lon="6.03368">
        <ele>1798</ele>
        <time>2015-12-15T10:49:10Z</time>
      </trkpt>
      <trkpt lat="45.63173" lon="6.03369">
        <ele>1798.5</ele>
        <time>2015-12-15T10:49:18Z</time>
      </trkpt>
      <trkpt lat="45.63182" lon="6.03372">
        <ele>1799.4</ele>
        <time>2015-12-15T10:49:25Z</time>
      </trkpt>
      <trkpt lat="45.63192" lon="6.03374">
        <ele>1800.2</ele>
        <time>2015-12-15T10:49:33Z</time>
      </trkpt>
      <trkpt lat="45.63201" lon="6.03377">
        <ele>1801.1</ele>
        <time>2015-12-15T10:49:41Z</time>
      </trkpt>
      <trkpt lat="45.6321" lon="6.03382">
        <ele>1800.6</ele>
        <time>2015-12-15T10:49:48Z</time>
      </trkpt>
      <trkpt lat="45.63219" lon="6.03386">
        <ele>1801</ele>
        <time>2015-12-15T10:49:55Z</time>
      </trkpt>
      <trkpt lat="45.63228" lon="6.03389">
        <ele>1803</ele>
        <time>2015-12-15T10:50:02Z</time>
      </trkpt>
      <trkpt lat="45.63238" lon="6.03393">
        <ele>1803.8</ele>
        <time>2015-12-15T10:50:10Z</time>
      </trkpt>
      <trkpt lat="45.63248" lon="6.03395">
        <ele>1804.6</ele>
        <time>2015-12-15T10:50:17Z</time>
      </trkpt>
      <trkpt lat="45.63257" lon="6.03398">
        <ele>1804.1</ele>
        <time>2015-12-15T10:50:24Z</time>
      </trkpt>
      <trkpt lat="45.63266" lon="6.03398">
        <ele>1802.7</ele>
        <time>2015-12-15T10:50:31Z</time>
      </trkpt>
      <trkpt lat="45.63275" lon="6.03399">
        <ele>1802.9</ele>
        <time>2015-12-15T10:50:39Z</time>
      </trkpt>
      <trkpt lat="45.63285" lon="6.03403">
        <ele>1803</ele>
        <time>2015-12-15T10:50:48Z</time>
      </trkpt>
      <trkpt lat="45.63294" lon="6.03405">
        <ele>1803.1</ele>
        <time>2015-12-15T10:50:57Z</time>
      </trkpt>
      <trkpt lat="45.63303" lon="6.03409">
        <ele>1805.4</ele>
        <time>2015-12-15T10:51:08Z</time>
      </trkpt>
      <trkpt lat="45.63313" lon="6.0341">
        <ele>1809.1</ele>
        <time>2015-12-15T10:51:21Z</time>
      </trkpt>
      <trkpt lat="45.63322" lon="6.03408">
        <ele>1812.2</ele>
        <time>2015-12-15T10:51:35Z</time>
      </trkpt>
      <trkpt lat="45.63331" lon="6.03405">
        <ele>1815</ele>
        <time>2015-12-15T10:51:47Z</time>
      </trkpt>
      <trkpt lat="45.6334" lon="6.03401">
        <ele>1817</ele>
        <time>2015-12-15T10:52:01Z</time>
      </trkpt>
      <trkpt lat="45.6335" lon="6.03398">
        <ele>1820.2</ele>
        <time>2015-12-15T10:52:16Z</time>
      </trkpt>
      <trkpt lat="45.63359" lon="6.03395">
        <ele>1822.3</ele>
        <time>2015-12-15T10:52:27Z</time>
      </trkpt>
      <trkpt lat="45.63368" lon="6.03392">
        <ele>1823.7</ele>
        <time>2015-12-15T10:52:37Z</time>
      </trkpt>
      <trkpt lat="45.63377" lon="6.03391">
        <ele>1825</ele>
        <time>2015-12-15T10:52:47Z</time>
      </trkpt>
      <trkpt lat="45.63387" lon="6.03392">
        <ele>1824.8</ele>
        <time>2015-12-15T10:52:55Z</time>
      </trkpt>
      <trkpt lat="45.63396" lon="6.03389">
        <ele>1825.5</ele>
        <time>2015-12-15T10:53:03Z</time>
      </trkpt>
      <trkpt lat="45.63405" lon="6.03388">
        <ele>1825.4</ele>
        <time>2015-12-15T10:53:11Z</time>
      </trkpt>
      <trkpt lat="45.63415" lon="6.03388">
        <ele>1824.9</ele>
        <time>2015-12-15T10:53:21Z</time>
      </trkpt>
      <trkpt lat="45.63423" lon="6.03392">
        <ele>1826.1</ele>
        <time>2015-12-15T10:53:30Z</time>
      </trkpt>
      <trkpt lat="45.63432" lon="6.03394">
        <ele>1827.7</ele>
        <time>2015-12-15T10:53:42Z</time>
      </trkpt>
      <trkpt lat="45.63442" lon="6.03397">
        <ele>1830.5</ele>
        <time>2015-12-15T10:53:56Z</time>
      </trkpt>
      <trkpt lat="45.63451" lon="6.03398">
        <ele>1833.1</ele>
        <time>2015-12-15T10:54:10Z</time>
      </trkpt>
      <trkpt lat="45.6346" lon="6.03401">
        <ele>1835.1</ele>
        <time>2015-12-15T10:54:22Z</time>
      </trkpt>
      <trkpt lat="45.63469" lon="6.03406">
        <ele>1837</ele>
        <time>2015-12-15T10:54:33Z</time>
      </trkpt>
      <trkpt lat="45.63478" lon="6.03404">
        <ele>1839.7</ele>
        <time>2015-12-15T10:54:51Z</time>
      </trkpt>
      <trkpt lat="45.63486" lon="6.03397">
        <ele>1842.8</ele>
        <time>2015-12-15T10:55:14Z</time>
      </trkpt>
      <trkpt lat="45.63495" lon="6.03398">
        <ele>1844.1</ele>
        <time>2015-12-15T10:56:18Z</time>
      </trkpt>
      <trkpt lat="45.63504" lon="6.03404">
        <ele>1842.6</ele>
        <time>2015-12-15T10:56:43Z</time>
      </trkpt>
      <trkpt lat="45.6351" lon="6.03412">
        <ele>1842.2</ele>
        <time>2015-12-15T10:57:22Z</time>
      </trkpt>
      <trkpt lat="45.63512" lon="6.03425">
        <ele>1840.9</ele>
        <time>2015-12-15T10:57:34Z</time>
      </trkpt>
      <trkpt lat="45.63521" lon="6.03425">
        <ele>1839.8</ele>
        <time>2015-12-15T11:01:16Z</time>
      </trkpt>
      <trkpt lat="45.63514" lon="6.03431">
        <ele>1840.9</ele>
        <time>2015-12-15T11:02:41Z</time>
      </trkpt>
      <trkpt lat="45.63523" lon="6.0343">
        <ele>1834.1</ele>
        <time>2015-12-15T11:37:47Z</time>
      </trkpt>
      <trkpt lat="45.63531" lon="6.03436">
        <ele>1835.4</ele>
        <time>2015-12-15T11:38:02Z</time>
      </trkpt>
      <trkpt lat="45.6354" lon="6.03441">
        <ele>1835.4</ele>
        <time>2015-12-15T11:38:12Z</time>
      </trkpt>
      <trkpt lat="45.63548" lon="6.03449">
        <ele>1835.9</ele>
        <time>2015-12-15T11:38:22Z</time>
      </trkpt>
      <trkpt lat="45.63555" lon="6.03457">
        <ele>1836.4</ele>
        <time>2015-12-15T11:38:31Z</time>
      </trkpt>
      <trkpt lat="45.63563" lon="6.03464">
        <ele>1835.8</ele>
        <time>2015-12-15T11:38:39Z</time>
      </trkpt>
      <trkpt lat="45.63571" lon="6.03472">
        <ele>1834.8</ele>
        <time>2015-12-15T11:38:47Z</time>
      </trkpt>
      <trkpt lat="45.63579" lon="6.0348">
        <ele>1834.6</ele>
        <time>2015-12-15T11:38:55Z</time>
      </trkpt>
      <trkpt lat="45.63587" lon="6.03489">
        <ele>1834.6</ele>
        <time>2015-12-15T11:39:04Z</time>
      </trkpt>
      <trkpt lat="45.63595" lon="6.03496">
        <ele>1833.2</ele>
        <time>2015-12-15T11:39:13Z</time>
      </trkpt>
      <trkpt lat="45.63602" lon="6.03504">
        <ele>1831.8</ele>
        <time>2015-12-15T11:39:22Z</time>
      </trkpt>
      <trkpt lat="45.6361" lon="6.03511">
        <ele>1830.3</ele>
        <time>2015-12-15T11:39:31Z</time>
      </trkpt>
      <trkpt lat="45.63617" lon="6.03519">
        <ele>1828.9</ele>
        <time>2015-12-15T11:39:40Z</time>
      </trkpt>
      <trkpt lat="45.63625" lon="6.03527">
        <ele>1827</ele>
        <time>2015-12-15T11:39:49Z</time>
      </trkpt>
      <trkpt lat="45.63633" lon="6.03534">
        <ele>1825.5</ele>
        <time>2015-12-15T11:39:57Z</time>
      </trkpt>
      <trkpt lat="45.63642" lon="6.03541">
        <ele>1823.7</ele>
        <time>2015-12-15T11:40:06Z</time>
      </trkpt>
      <trkpt lat="45.63649" lon="6.0355">
        <ele>1822.7</ele>
        <time>2015-12-15T11:40:15Z</time>
      </trkpt>
      <trkpt lat="45.63645" lon="6.03537">
        <ele>1820.4</ele>
        <time>2015-12-15T11:40:48Z</time>
      </trkpt>
      <trkpt lat="45.63646" lon="6.0355">
        <ele>1800.8</ele>
        <time>2015-12-15T11:41:53Z</time>
      </trkpt>
      <trkpt lat="45.63653" lon="6.03559">
        <ele>1802.5</ele>
        <time>2015-12-15T11:42:01Z</time>
      </trkpt>
      <trkpt lat="45.63661" lon="6.03565">
        <ele>1805.5</ele>
        <time>2015-12-15T11:42:08Z</time>
      </trkpt>
      <trkpt lat="45.63671" lon="6.03571">
        <ele>1810.8</ele>
        <time>2015-12-15T11:42:17Z</time>
      </trkpt>
      <trkpt lat="45.6368" lon="6.03572">
        <ele>1816.2</ele>
        <time>2015-12-15T11:42:26Z</time>
      </trkpt>
      <trkpt lat="45.6369" lon="6.03573">
        <ele>1821</ele>
        <time>2015-12-15T11:42:37Z</time>
      </trkpt>
      <trkpt lat="45.63699" lon="6.03575">
        <ele>1823.3</ele>
        <time>2015-12-15T11:42:48Z</time>
      </trkpt>
      <trkpt lat="45.63701" lon="6.03562">
        <ele>1826.6</ele>
        <time>2015-12-15T11:43:47Z</time>
      </trkpt>
      <trkpt lat="45.63698" lon="6.03549">
        <ele>1828.9</ele>
        <time>2015-12-15T11:44:04Z</time>
      </trkpt>
      <trkpt lat="45.63691" lon="6.0354">
        <ele>1819.7</ele>
        <time>2015-12-15T11:49:13Z</time>
      </trkpt>
      <trkpt lat="45.63683" lon="6.03545">
        <ele>1821</ele>
        <time>2015-12-15T11:58:30Z</time>
      </trkpt>
      <trkpt lat="45.63665" lon="6.03551">
        <ele>1823.2</ele>
        <time>2015-12-15T11:59:14Z</time>
      </trkpt>
      <trkpt lat="45.63674" lon="6.03555">
        <ele>1811.6</ele>
        <time>2015-12-15T11:59:21Z</time>
      </trkpt>
      <trkpt lat="45.63692" lon="6.03574">
        <ele>1808</ele>
        <time>2015-12-15T11:59:43Z</time>
      </trkpt>
      <trkpt lat="45.63668" lon="6.03539">
        <ele>1813</ele>
        <time>2015-12-15T12:00:01Z</time>
      </trkpt>
      <trkpt lat="45.63661" lon="6.03532">
        <ele>1838</ele>
        <time>2015-12-15T12:00:47Z</time>
      </trkpt>
      <trkpt lat="45.63661" lon="6.03519">
        <ele>1837.9</ele>
        <time>2015-12-15T12:01:53Z</time>
      </trkpt>
      <trkpt lat="45.63658" lon="6.03505">
        <ele>1860</ele>
        <time>2015-12-15T12:02:15Z</time>
      </trkpt>
      <trkpt lat="45.63656" lon="6.03518">
        <ele>1855.1</ele>
        <time>2015-12-15T12:03:20Z</time>
      </trkpt>
      <trkpt lat="45.6366" lon="6.0353">
        <ele>1838.8</ele>
        <time>2015-12-15T12:03:33Z</time>
      </trkpt>
      <trkpt lat="45.63658" lon="6.03542">
        <ele>1829.1</ele>
        <time>2015-12-15T12:03:46Z</time>
      </trkpt>
      <trkpt lat="45.63666" lon="6.03535">
        <ele>1812.1</ele>
        <time>2015-12-15T12:04:49Z</time>
      </trkpt>
      <trkpt lat="45.63672" lon="6.03526">
        <ele>1818</ele>
        <time>2015-12-15T12:05:11Z</time>
      </trkpt>
      <trkpt lat="45.63675" lon="6.03514">
        <ele>1823</ele>
        <time>2015-12-15T12:06:29Z</time>
      </trkpt>
      <trkpt lat="45.63674" lon="6.03501">
        <ele>1838.6</ele>
        <time>2015-12-15T12:09:11Z</time>
      </trkpt>
      <trkpt lat="45.63669" lon="6.03513">
        <ele>1812</ele>
        <time>2015-12-15T12:12:55Z</time>
      </trkpt>
      <trkpt lat="45.63663" lon="6.03523">
        <ele>1802.5</ele>
        <time>2015-12-15T12:13:22Z</time>
      </trkpt>
      <trkpt lat="45.63654" lon="6.03528">
        <ele>1801.5</ele>
        <time>2015-12-15T12:14:07Z</time>
      </trkpt>
      <trkpt lat="45.63659" lon="6.03518">
        <ele>1828</ele>
        <time>2015-12-15T12:15:02Z</time>
      </trkpt>
      <trkpt lat="45.63668" lon="6.03513">
        <ele>1815</ele>
        <time>2015-12-15T12:18:44Z</time>
      </trkpt>
      <trkpt lat="45.63667" lon="6.035">
        <ele>1824</ele>
        <time>2015-12-15T12:19:53Z</time>
      </trkpt>
      <trkpt lat="45.63668" lon="6.03484">
        <ele>1850</ele>
        <time>2015-12-15T12:20:13Z</time>
      </trkpt>
      <trkpt lat="45.63671" lon="6.03471">
        <ele>1860.4</ele>
        <time>2015-12-15T12:20:38Z</time>
      </trkpt>
      <trkpt lat="45.63674" lon="6.03458">
        <ele>1884</ele>
        <time>2015-12-15T12:21:29Z</time>
      </trkpt>
      <trkpt lat="45.63673" lon="6.03444">
        <ele>1907.8</ele>
        <time>2015-12-15T12:22:15Z</time>
      </trkpt>
      <trkpt lat="45.63673" lon="6.03429">
        <ele>1929</ele>
        <time>2015-12-15T12:22:24Z</time>
      </trkpt>
      <trkpt lat="45.6367" lon="6.03416">
        <ele>1942</ele>
        <time>2015-12-15T12:22:44Z</time>
      </trkpt>
      <trkpt lat="45.63666" lon="6.03428">
        <ele>1928</ele>
        <time>2015-12-15T12:23:12Z</time>
      </trkpt>
      <trkpt lat="45.63666" lon="6.03444">
        <ele>1902</ele>
        <time>2015-12-15T12:23:24Z</time>
      </trkpt>
      <trkpt lat="45.63668" lon="6.03457">
        <ele>1883</ele>
        <time>2015-12-15T12:23:36Z</time>
      </trkpt>
      <trkpt lat="45.63644" lon="6.03458">
        <ele>1893</ele>
        <time>2015-12-15T12:24:11Z</time>
      </trkpt>
      <trkpt lat="45.63655" lon="6.03459">
        <ele>1899</ele>
        <time>2015-12-15T12:24:19Z</time>
      </trkpt>
      <trkpt lat="45.63664" lon="6.03455">
        <ele>1894</ele>
        <time>2015-12-15T12:24:27Z</time>
      </trkpt>
      <trkpt lat="45.63665" lon="6.03469">
        <ele>1893</ele>
        <time>2015-12-15T12:25:49Z</time>
      </trkpt>
      <trkpt lat="45.63658" lon="6.03458">
        <ele>1890</ele>
        <time>2015-12-15T12:28:24Z</time>
      </trkpt>
      <trkpt lat="45.63654" lon="6.03446">
        <ele>1906</ele>
        <time>2015-12-15T12:29:00Z</time>
      </trkpt>
      <trkpt lat="45.63649" lon="6.03457">
        <ele>1906</ele>
        <time>2015-12-15T12:29:52Z</time>
      </trkpt>
      <trkpt lat="45.63643" lon="6.0347">
        <ele>1880</ele>
        <time>2015-12-15T12:30:52Z</time>
      </trkpt>
      <trkpt lat="45.63634" lon="6.03473">
        <ele>1883</ele>
        <time>2015-12-15T12:31:00Z</time>
      </trkpt>
      <trkpt lat="45.63624" lon="6.03474">
        <ele>1887</ele>
        <time>2015-12-15T12:31:08Z</time>
      </trkpt>
      <trkpt lat="45.63629" lon="6.03462">
        <ele>1887</ele>
        <time>2015-12-15T12:31:20Z</time>
      </trkpt>
      <trkpt lat="45.63639" lon="6.03458">
        <ele>1886</ele>
        <time>2015-12-15T12:31:44Z</time>
      </trkpt>
      <trkpt lat="45.63651" lon="6.03461">
        <ele>1882</ele>
        <time>2015-12-15T12:32:00Z</time>
      </trkpt>
      <trkpt lat="45.63642" lon="6.03464">
        <ele>1872</ele>
        <time>2015-12-15T12:33:20Z</time>
      </trkpt>
      <trkpt lat="45.63652" lon="6.03462">
        <ele>1870</ele>
        <time>2015-12-15T12:33:46Z</time>
      </trkpt>
      <trkpt lat="45.63649" lon="6.03474">
        <ele>1853</ele>
        <time>2015-12-15T12:34:34Z</time>
      </trkpt>
      <trkpt lat="45.6365" lon="6.03487">
        <ele>1837</ele>
        <time>2015-12-15T12:34:54Z</time>
      </trkpt>
      <trkpt lat="45.63651" lon="6.03501">
        <ele>1820</ele>
        <time>2015-12-15T12:35:06Z</time>
      </trkpt>
      <trkpt lat="45.63653" lon="6.03515">
        <ele>1802</ele>
        <time>2015-12-15T12:35:22Z</time>
      </trkpt>
      <trkpt lat="45.63657" lon="6.03501">
        <ele>1809</ele>
        <time>2015-12-15T12:36:30Z</time>
      </trkpt>
      <trkpt lat="45.63649" lon="6.03507">
        <ele>1806.1</ele>
        <time>2015-12-15T12:37:05Z</time>
      </trkpt>
      <trkpt lat="45.63649" lon="6.0352">
        <ele>1797.7</ele>
        <time>2015-12-15T12:37:42Z</time>
      </trkpt>
      <trkpt lat="45.63647" lon="6.03533">
        <ele>1787.7</ele>
        <time>2015-12-15T12:37:51Z</time>
      </trkpt>
      <trkpt lat="45.63645" lon="6.03546">
        <ele>1776.8</ele>
        <time>2015-12-15T12:38:04Z</time>
      </trkpt>
      <trkpt lat="45.63646" lon="6.03532">
        <ele>1784.3</ele>
        <time>2015-12-15T12:38:22Z</time>
      </trkpt>
      <trkpt lat="45.63648" lon="6.03518">
        <ele>1792.7</ele>
        <time>2015-12-15T12:38:31Z</time>
      </trkpt>
      <trkpt lat="45.63651" lon="6.03506">
        <ele>1802.2</ele>
        <time>2015-12-15T12:38:38Z</time>
      </trkpt>
      <trkpt lat="45.6365" lon="6.0352">
        <ele>1792.9</ele>
        <time>2015-12-15T12:38:48Z</time>
      </trkpt>
      <trkpt lat="45.63647" lon="6.03536">
        <ele>1780</ele>
        <time>2015-12-15T12:38:55Z</time>
      </trkpt>
      <trkpt lat="45.63648" lon="6.03522">
        <ele>1786.6</ele>
        <time>2015-12-15T12:39:11Z</time>
      </trkpt>
      <trkpt lat="45.63651" lon="6.03507">
        <ele>1796</ele>
        <time>2015-12-15T12:39:15Z</time>
      </trkpt>
      <trkpt lat="45.63653" lon="6.03493">
        <ele>1806.2</ele>
        <time>2015-12-15T12:39:20Z</time>
      </trkpt>
      <trkpt lat="45.63656" lon="6.03479">
        <ele>1815</ele>
        <time>2015-12-15T12:39:33Z</time>
      </trkpt>
      <trkpt lat="45.63656" lon="6.03493">
        <ele>1807</ele>
        <time>2015-12-15T12:39:49Z</time>
      </trkpt>
      <trkpt lat="45.63655" lon="6.03506">
        <ele>1799.3</ele>
        <time>2015-12-15T12:39:57Z</time>
      </trkpt>
      <trkpt lat="45.63662" lon="6.03497">
        <ele>1766.5</ele>
        <time>2015-12-15T12:51:06Z</time>
      </trkpt>
      <trkpt lat="45.63671" lon="6.03492">
        <ele>1765.2</ele>
        <time>2015-12-15T12:51:26Z</time>
      </trkpt>
      <trkpt lat="45.63668" lon="6.0348">
        <ele>1764.7</ele>
        <time>2015-12-15T12:51:54Z</time>
      </trkpt>
      <trkpt lat="45.63665" lon="6.03467">
        <ele>1759.7</ele>
        <time>2015-12-15T12:52:28Z</time>
      </trkpt>
      <trkpt lat="45.63656" lon="6.03462">
        <ele>1756.3</ele>
        <time>2015-12-15T12:52:50Z</time>
      </trkpt>
      <trkpt lat="45.63657" lon="6.03449">
        <ele>1728.9</ele>
        <time>2015-12-15T12:54:57Z</time>
      </trkpt>
      <trkpt lat="45.63662" lon="6.03438">
        <ele>1726.6</ele>
        <time>2015-12-15T12:55:14Z</time>
      </trkpt>
      <trkpt lat="45.63661" lon="6.03425">
        <ele>1724.2</ele>
        <time>2015-12-15T12:56:22Z</time>
      </trkpt>
      <trkpt lat="45.63667" lon="6.03415">
        <ele>1720.8</ele>
        <time>2015-12-15T12:56:49Z</time>
      </trkpt>
      <trkpt lat="45.63669" lon="6.03403">
        <ele>1717.1</ele>
        <time>2015-12-15T12:57:13Z</time>
      </trkpt>
      <trkpt lat="45.63663" lon="6.03393">
        <ele>1710.8</ele>
        <time>2015-12-15T12:57:31Z</time>
      </trkpt>
      <trkpt lat="45.63658" lon="6.03382">
        <ele>1708.8</ele>
        <time>2015-12-15T12:57:59Z</time>
      </trkpt>
      <trkpt lat="45.63665" lon="6.03373">
        <ele>1700.2</ele>
        <time>2015-12-15T12:58:56Z</time>
      </trkpt>
      <trkpt lat="45.63658" lon="6.03366">
        <ele>1698.9</ele>
        <time>2015-12-15T12:59:26Z</time>
      </trkpt>
      <trkpt lat="45.63653" lon="6.03355">
        <ele>1694.9</ele>
        <time>2015-12-15T12:59:49Z</time>
      </trkpt>
      <trkpt lat="45.63647" lon="6.03344">
        <ele>1687.8</ele>
        <time>2015-12-15T13:00:20Z</time>
      </trkpt>
      <trkpt lat="45.63642" lon="6.03334">
        <ele>1681.3</ele>
        <time>2015-12-15T13:00:40Z</time>
      </trkpt>
      <trkpt lat="45.63646" lon="6.03322">
        <ele>1661.7</ele>
        <time>2015-12-15T13:01:32Z</time>
      </trkpt>
      <trkpt lat="45.63648" lon="6.03309">
        <ele>1652.5</ele>
        <time>2015-12-15T13:02:19Z</time>
      </trkpt>
      <trkpt lat="45.63643" lon="6.03298">
        <ele>1648.3</ele>
        <time>2015-12-15T13:02:36Z</time>
      </trkpt>
      <trkpt lat="45.63643" lon="6.03284">
        <ele>1642.3</ele>
        <time>2015-12-15T13:03:01Z</time>
      </trkpt>
      <trkpt lat="45.63646" lon="6.03272">
        <ele>1632.6</ele>
        <time>2015-12-15T13:03:22Z</time>
      </trkpt>
      <trkpt lat="45.63645" lon="6.03259">
        <ele>1629.1</ele>
        <time>2015-12-15T13:03:41Z</time>
      </trkpt>
      <trkpt lat="45.6365" lon="6.03249">
        <ele>1626</ele>
        <time>2015-12-15T13:04:08Z</time>
      </trkpt>
      <trkpt lat="45.63651" lon="6.03236">
        <ele>1627.2</ele>
        <time>2015-12-15T13:06:56Z</time>
      </trkpt>
      <trkpt lat="45.63651" lon="6.03222">
        <ele>1616.4</ele>
        <time>2015-12-15T13:09:18Z</time>
      </trkpt>
      <trkpt lat="45.63646" lon="6.03211">
        <ele>1611.2</ele>
        <time>2015-12-15T13:09:35Z</time>
      </trkpt>
      <trkpt lat="45.63642" lon="6.03198">
        <ele>1606.3</ele>
        <time>2015-12-15T13:09:53Z</time>
      </trkpt>
      <trkpt lat="45.63639" lon="6.03186">
        <ele>1600.2</ele>
        <time>2015-12-15T13:10:11Z</time>
      </trkpt>
      <trkpt lat="45.63635" lon="6.03175">
        <ele>1594.8</ele>
        <time>2015-12-15T13:10:31Z</time>
      </trkpt>
      <trkpt lat="45.63631" lon="6.03163">
        <ele>1590.2</ele>
        <time>2015-12-15T13:10:48Z</time>
      </trkpt>
      <trkpt lat="45.63638" lon="6.03155">
        <ele>1586.4</ele>
        <time>2015-12-15T13:11:00Z</time>
      </trkpt>
      <trkpt lat="45.63633" lon="6.03145">
        <ele>1578.7</ele>
        <time>2015-12-15T13:11:20Z</time>
      </trkpt>
      <trkpt lat="45.63628" lon="6.03133">
        <ele>1574.9</ele>
        <time>2015-12-15T13:11:41Z</time>
      </trkpt>
      <trkpt lat="45.63629" lon="6.0312">
        <ele>1569.1</ele>
        <time>2015-12-15T13:12:01Z</time>
      </trkpt>
      <trkpt lat="45.63621" lon="6.03114">
        <ele>1565</ele>
        <time>2015-12-15T13:12:16Z</time>
      </trkpt>
      <trkpt lat="45.63613" lon="6.03107">
        <ele>1564.4</ele>
        <time>2015-12-15T13:12:25Z</time>
      </trkpt>
      <trkpt lat="45.63604" lon="6.03101">
        <ele>1562</ele>
        <time>2015-12-15T13:12:36Z</time>
      </trkpt>
      <trkpt lat="45.63597" lon="6.03093">
        <ele>1560.7</ele>
        <time>2015-12-15T13:12:46Z</time>
      </trkpt>
      <trkpt lat="45.6359" lon="6.03083">
        <ele>1558.3</ele>
        <time>2015-12-15T13:12:57Z</time>
      </trkpt>
      <trkpt lat="45.63582" lon="6.03076">
        <ele>1558.6</ele>
        <time>2015-12-15T13:13:08Z</time>
      </trkpt>
      <trkpt lat="45.63576" lon="6.03067">
        <ele>1560.6</ele>
        <time>2015-12-15T13:13:20Z</time>
      </trkpt>
      <trkpt lat="45.63567" lon="6.0306">
        <ele>1556.6</ele>
        <time>2015-12-15T13:13:36Z</time>
      </trkpt>
      <trkpt lat="45.63559" lon="6.03055">
        <ele>1550.1</ele>
        <time>2015-12-15T13:13:50Z</time>
      </trkpt>
      <trkpt lat="45.6355" lon="6.0305">
        <ele>1544.1</ele>
        <time>2015-12-15T13:14:07Z</time>
      </trkpt>
      <trkpt lat="45.63544" lon="6.0304">
        <ele>1536</ele>
        <time>2015-12-15T13:14:29Z</time>
      </trkpt>
      <trkpt lat="45.63543" lon="6.03027">
        <ele>1532.7</ele>
        <time>2015-12-15T13:15:03Z</time>
      </trkpt>
      <trkpt lat="45.63544" lon="6.03014">
        <ele>1525.5</ele>
        <time>2015-12-15T13:15:40Z</time>
      </trkpt>
      <trkpt lat="45.6355" lon="6.03005">
        <ele>1517.1</ele>
        <time>2015-12-15T13:16:07Z</time>
      </trkpt>
      <trkpt lat="45.63548" lon="6.02991">
        <ele>1508.1</ele>
        <time>2015-12-15T13:16:39Z</time>
      </trkpt>
      <trkpt lat="45.63551" lon="6.02979">
        <ele>1501.6</ele>
        <time>2015-12-15T13:16:58Z</time>
      </trkpt>
      <trkpt lat="45.63555" lon="6.02967">
        <ele>1498.1</ele>
        <time>2015-12-15T13:17:16Z</time>
      </trkpt>
      <trkpt lat="45.63559" lon="6.02955">
        <ele>1494.9</ele>
        <time>2015-12-15T13:17:31Z</time>
      </trkpt>
      <trkpt lat="45.63558" lon="6.02942">
        <ele>1492.2</ele>
        <time>2015-12-15T13:17:49Z</time>
      </trkpt>
      <trkpt lat="45.63562" lon="6.0293">
        <ele>1487.4</ele>
        <time>2015-12-15T13:18:01Z</time>
      </trkpt>
      <trkpt lat="45.63565" lon="6.02917">
        <ele>1479.2</ele>
        <time>2015-12-15T13:18:20Z</time>
      </trkpt>
      <trkpt lat="45.63561" lon="6.02906">
        <ele>1475.9</ele>
        <time>2015-12-15T13:18:33Z</time>
      </trkpt>
      <trkpt lat="45.63555" lon="6.02896">
        <ele>1472.2</ele>
        <time>2015-12-15T13:18:42Z</time>
      </trkpt>
      <trkpt lat="45.63551" lon="6.02885">
        <ele>1468.3</ele>
        <time>2015-12-15T13:18:53Z</time>
      </trkpt>
      <trkpt lat="45.63556" lon="6.02874">
        <ele>1463</ele>
        <time>2015-12-15T13:19:05Z</time>
      </trkpt>
      <trkpt lat="45.63563" lon="6.02865">
        <ele>1455.7</ele>
        <time>2015-12-15T13:19:18Z</time>
      </trkpt>
      <trkpt lat="45.63571" lon="6.02858">
        <ele>1452.2</ele>
        <time>2015-12-15T13:19:30Z</time>
      </trkpt>
      <trkpt lat="45.63573" lon="6.02845">
        <ele>1447.2</ele>
        <time>2015-12-15T13:19:53Z</time>
      </trkpt>
      <trkpt lat="45.63579" lon="6.02834">
        <ele>1444.7</ele>
        <time>2015-12-15T13:20:04Z</time>
      </trkpt>
      <trkpt lat="45.63588" lon="6.02832">
        <ele>1438.1</ele>
        <time>2015-12-15T13:20:15Z</time>
      </trkpt>
      <trkpt lat="45.63594" lon="6.02821">
        <ele>1434.8</ele>
        <time>2015-12-15T13:20:25Z</time>
      </trkpt>
      <trkpt lat="45.63603" lon="6.02816">
        <ele>1430.6</ele>
        <time>2015-12-15T13:20:35Z</time>
      </trkpt>
      <trkpt lat="45.63611" lon="6.02809">
        <ele>1428.3</ele>
        <time>2015-12-15T13:20:44Z</time>
      </trkpt>
      <trkpt lat="45.6362" lon="6.02803">
        <ele>1426.3</ele>
        <time>2015-12-15T13:20:53Z</time>
      </trkpt>
      <trkpt lat="45.63626" lon="6.02792">
        <ele>1424.3</ele>
        <time>2015-12-15T13:21:03Z</time>
      </trkpt>
      <trkpt lat="45.63627" lon="6.02778">
        <ele>1421.9</ele>
        <time>2015-12-15T13:21:16Z</time>
      </trkpt>
      <trkpt lat="45.63626" lon="6.02764">
        <ele>1424.6</ele>
        <time>2015-12-15T13:21:25Z</time>
      </trkpt>
      <trkpt lat="45.63626" lon="6.02751">
        <ele>1421.1</ele>
        <time>2015-12-15T13:21:41Z</time>
      </trkpt>
      <trkpt lat="45.63623" lon="6.02738">
        <ele>1418.1</ele>
        <time>2015-12-15T13:21:50Z</time>
      </trkpt>
      <trkpt lat="45.63621" lon="6.02725">
        <ele>1394.1</ele>
        <time>2015-12-15T13:23:15Z</time>
      </trkpt>
      <trkpt lat="45.63623" lon="6.02711">
        <ele>1406.8</ele>
        <time>2015-12-15T13:23:26Z</time>
      </trkpt>
      <trkpt lat="45.63617" lon="6.02721">
        <ele>1401.3</ele>
        <time>2015-12-15T13:24:11Z</time>
      </trkpt>
      <trkpt lat="45.63622" lon="6.0271">
        <ele>1402.2</ele>
        <time>2015-12-15T13:24:40Z</time>
      </trkpt>
      <trkpt lat="45.63628" lon="6.02699">
        <ele>1403.6</ele>
        <time>2015-12-15T13:24:51Z</time>
      </trkpt>
      <trkpt lat="45.63632" lon="6.02687">
        <ele>1405.3</ele>
        <time>2015-12-15T13:25:00Z</time>
      </trkpt>
      <trkpt lat="45.63636" lon="6.02673">
        <ele>1405.4</ele>
        <time>2015-12-15T13:25:07Z</time>
      </trkpt>
      <trkpt lat="45.63642" lon="6.02662">
        <ele>1404.3</ele>
        <time>2015-12-15T13:25:13Z</time>
      </trkpt>
      <trkpt lat="45.63647" lon="6.0265">
        <ele>1401.5</ele>
        <time>2015-12-15T13:25:19Z</time>
      </trkpt>
      <trkpt lat="45.63652" lon="6.02639">
        <ele>1398</ele>
        <time>2015-12-15T13:25:25Z</time>
      </trkpt>
      <trkpt lat="45.63658" lon="6.02628">
        <ele>1395.9</ele>
        <time>2015-12-15T13:25:31Z</time>
      </trkpt>
      <trkpt lat="45.63664" lon="6.02618">
        <ele>1394.2</ele>
        <time>2015-12-15T13:25:37Z</time>
      </trkpt>
      <trkpt lat="45.63671" lon="6.02607">
        <ele>1391.6</ele>
        <time>2015-12-15T13:25:45Z</time>
      </trkpt>
      <trkpt lat="45.63672" lon="6.02592">
        <ele>1388.5</ele>
        <time>2015-12-15T13:25:52Z</time>
      </trkpt>
      <trkpt lat="45.63669" lon="6.02578">
        <ele>1386.2</ele>
        <time>2015-12-15T13:25:59Z</time>
      </trkpt>
      <trkpt lat="45.63663" lon="6.02567">
        <ele>1384.7</ele>
        <time>2015-12-15T13:26:06Z</time>
      </trkpt>
      <trkpt lat="45.63657" lon="6.02556">
        <ele>1385</ele>
        <time>2015-12-15T13:26:13Z</time>
      </trkpt>
      <trkpt lat="45.63652" lon="6.02545">
        <ele>1380.2</ele>
        <time>2015-12-15T13:26:41Z</time>
      </trkpt>
      <trkpt lat="45.63651" lon="6.0253">
        <ele>1381</ele>
        <time>2015-12-15T13:27:04Z</time>
      </trkpt>
      <trkpt lat="45.63645" lon="6.0252">
        <ele>1378.4</ele>
        <time>2015-12-15T13:27:17Z</time>
      </trkpt>
      <trkpt lat="45.63636" lon="6.02516">
        <ele>1376.4</ele>
        <time>2015-12-15T13:27:25Z</time>
      </trkpt>
      <trkpt lat="45.63627" lon="6.02512">
        <ele>1375.8</ele>
        <time>2015-12-15T13:27:33Z</time>
      </trkpt>
      <trkpt lat="45.63617" lon="6.02511">
        <ele>1375.3</ele>
        <time>2015-12-15T13:27:41Z</time>
      </trkpt>
      <trkpt lat="45.63609" lon="6.02506">
        <ele>1373.8</ele>
        <time>2015-12-15T13:27:51Z</time>
      </trkpt>
      <trkpt lat="45.63607" lon="6.02493">
        <ele>1372.7</ele>
        <time>2015-12-15T13:28:00Z</time>
      </trkpt>
      <trkpt lat="45.6361" lon="6.02479">
        <ele>1371.3</ele>
        <time>2015-12-15T13:28:09Z</time>
      </trkpt>
      <trkpt lat="45.63614" lon="6.02467">
        <ele>1367.4</ele>
        <time>2015-12-15T13:28:31Z</time>
      </trkpt>
      <trkpt lat="45.63606" lon="6.0246">
        <ele>1368.5</ele>
        <time>2015-12-15T13:29:27Z</time>
      </trkpt>
      <trkpt lat="45.63597" lon="6.02461">
        <ele>1364.8</ele>
        <time>2015-12-15T13:29:58Z</time>
      </trkpt>
      <trkpt lat="45.63596" lon="6.02448">
        <ele>1361.2</ele>
        <time>2015-12-15T13:30:17Z</time>
      </trkpt>
      <trkpt lat="45.63596" lon="6.02434">
        <ele>1358.3</ele>
        <time>2015-12-15T13:30:45Z</time>
      </trkpt>
      <trkpt lat="45.63604" lon="6.02427">
        <ele>1358</ele>
        <time>2015-12-15T13:30:54Z</time>
      </trkpt>
      <trkpt lat="45.63612" lon="6.0242">
        <ele>1355.1</ele>
        <time>2015-12-15T13:31:04Z</time>
      </trkpt>
      <trkpt lat="45.63614" lon="6.02408">
        <ele>1352.1</ele>
        <time>2015-12-15T13:31:21Z</time>
      </trkpt>
      <trkpt lat="45.63614" lon="6.02395">
        <ele>1342.8</ele>
        <time>2015-12-15T13:31:47Z</time>
      </trkpt>
      <trkpt lat="45.63616" lon="6.02381">
        <ele>1339.7</ele>
        <time>2015-12-15T13:32:09Z</time>
      </trkpt>
      <trkpt lat="45.63613" lon="6.02368">
        <ele>1345.1</ele>
        <time>2015-12-15T13:32:29Z</time>
      </trkpt>
      <trkpt lat="45.63604" lon="6.02365">
        <ele>1339.5</ele>
        <time>2015-12-15T13:32:49Z</time>
      </trkpt>
      <trkpt lat="45.63595" lon="6.02367">
        <ele>1334.4</ele>
        <time>2015-12-15T13:33:06Z</time>
      </trkpt>
      <trkpt lat="45.63586" lon="6.02367">
        <ele>1328.8</ele>
        <time>2015-12-15T13:33:18Z</time>
      </trkpt>
      <trkpt lat="45.63577" lon="6.02368">
        <ele>1324.4</ele>
        <time>2015-12-15T13:33:28Z</time>
      </trkpt>
      <trkpt lat="45.63568" lon="6.0237">
        <ele>1322.4</ele>
        <time>2015-12-15T13:33:37Z</time>
      </trkpt>
      <trkpt lat="45.63558" lon="6.02374">
        <ele>1319.6</ele>
        <time>2015-12-15T13:33:48Z</time>
      </trkpt>
      <trkpt lat="45.6355" lon="6.02379">
        <ele>1319.2</ele>
        <time>2015-12-15T13:33:57Z</time>
      </trkpt>
      <trkpt lat="45.63541" lon="6.02386">
        <ele>1315.2</ele>
        <time>2015-12-15T13:34:05Z</time>
      </trkpt>
      <trkpt lat="45.63532" lon="6.02393">
        <ele>1312.2</ele>
        <time>2015-12-15T13:34:12Z</time>
      </trkpt>
      <trkpt lat="45.63525" lon="6.02401">
        <ele>1309.8</ele>
        <time>2015-12-15T13:34:19Z</time>
      </trkpt>
      <trkpt lat="45.63519" lon="6.0241">
        <ele>1305.7</ele>
        <time>2015-12-15T13:34:26Z</time>
      </trkpt>
      <trkpt lat="45.63511" lon="6.02418">
        <ele>1302.8</ele>
        <time>2015-12-15T13:34:34Z</time>
      </trkpt>
      <trkpt lat="45.63503" lon="6.02424">
        <ele>1300.2</ele>
        <time>2015-12-15T13:34:44Z</time>
      </trkpt>
      <trkpt lat="45.63496" lon="6.02432">
        <ele>1298.3</ele>
        <time>2015-12-15T13:34:52Z</time>
      </trkpt>
      <trkpt lat="45.63488" lon="6.02441">
        <ele>1297.3</ele>
        <time>2015-12-15T13:35:02Z</time>
      </trkpt>
      <trkpt lat="45.6348" lon="6.02448">
        <ele>1296</ele>
        <time>2015-12-15T13:35:10Z</time>
      </trkpt>
      <trkpt lat="45.63472" lon="6.02457">
        <ele>1295.3</ele>
        <time>2015-12-15T13:35:19Z</time>
      </trkpt>
      <trkpt lat="45.63464" lon="6.02463">
        <ele>1294.9</ele>
        <time>2015-12-15T13:35:26Z</time>
      </trkpt>
      <trkpt lat="45.63455" lon="6.02467">
        <ele>1290.9</ele>
        <time>2015-12-15T13:35:33Z</time>
      </trkpt>
      <trkpt lat="45.63447" lon="6.02472">
        <ele>1286.5</ele>
        <time>2015-12-15T13:35:42Z</time>
      </trkpt>
      <trkpt lat="45.63437" lon="6.02476">
        <ele>1282.6</ele>
        <time>2015-12-15T13:35:50Z</time>
      </trkpt>
      <trkpt lat="45.63428" lon="6.02478">
        <ele>1280.1</ele>
        <time>2015-12-15T13:35:59Z</time>
      </trkpt>
      <trkpt lat="45.63418" lon="6.02478">
        <ele>1275.7</ele>
        <time>2015-12-15T13:36:08Z</time>
      </trkpt>
      <trkpt lat="45.63411" lon="6.0247">
        <ele>1273.8</ele>
        <time>2015-12-15T13:36:16Z</time>
      </trkpt>
      <trkpt lat="45.63403" lon="6.02463">
        <ele>1271.7</ele>
        <time>2015-12-15T13:36:23Z</time>
      </trkpt>
      <trkpt lat="45.63393" lon="6.02464">
        <ele>1266.7</ele>
        <time>2015-12-15T13:36:32Z</time>
      </trkpt>
      <trkpt lat="45.63385" lon="6.02457">
        <ele>1264</ele>
        <time>2015-12-15T13:36:40Z</time>
      </trkpt>
      <trkpt lat="45.63378" lon="6.02448">
        <ele>1261.4</ele>
        <time>2015-12-15T13:36:48Z</time>
      </trkpt>
      <trkpt lat="45.63373" lon="6.02436">
        <ele>1263.3</ele>
        <time>2015-12-15T13:36:57Z</time>
      </trkpt>
      <trkpt lat="45.63366" lon="6.02427">
        <ele>1262</ele>
        <time>2015-12-15T13:37:08Z</time>
      </trkpt>
      <trkpt lat="45.63356" lon="6.02424">
        <ele>1262.6</ele>
        <time>2015-12-15T13:37:16Z</time>
      </trkpt>
      <trkpt lat="45.63347" lon="6.0242">
        <ele>1258.6</ele>
        <time>2015-12-15T13:37:25Z</time>
      </trkpt>
      <trkpt lat="45.63338" lon="6.02416">
        <ele>1252.1</ele>
        <time>2015-12-15T13:37:34Z</time>
      </trkpt>
      <trkpt lat="45.63329" lon="6.02413">
        <ele>1244.7</ele>
        <time>2015-12-15T13:37:45Z</time>
      </trkpt>
      <trkpt lat="45.6332" lon="6.02412">
        <ele>1239.4</ele>
        <time>2015-12-15T13:37:55Z</time>
      </trkpt>
      <trkpt lat="45.63313" lon="6.02402">
        <ele>1239.4</ele>
        <time>2015-12-15T13:38:04Z</time>
      </trkpt>
      <trkpt lat="45.63305" lon="6.02393">
        <ele>1241.6</ele>
        <time>2015-12-15T13:38:16Z</time>
      </trkpt>
      <trkpt lat="45.63295" lon="6.0239">
        <ele>1241.9</ele>
        <time>2015-12-15T13:38:23Z</time>
      </trkpt>
      <trkpt lat="45.63286" lon="6.02389">
        <ele>1239.9</ele>
        <time>2015-12-15T13:38:29Z</time>
      </trkpt>
      <trkpt lat="45.63277" lon="6.02388">
        <ele>1237.2</ele>
        <time>2015-12-15T13:38:36Z</time>
      </trkpt>
      <trkpt lat="45.63268" lon="6.02393">
        <ele>1235.1</ele>
        <time>2015-12-15T13:38:45Z</time>
      </trkpt>
      <trkpt lat="45.63259" lon="6.02399">
        <ele>1233.8</ele>
        <time>2015-12-15T13:38:54Z</time>
      </trkpt>
      <trkpt lat="45.63252" lon="6.02408">
        <ele>1232.7</ele>
        <time>2015-12-15T13:39:03Z</time>
      </trkpt>
      <trkpt lat="45.63246" lon="6.02417">
        <ele>1231.7</ele>
        <time>2015-12-15T13:39:10Z</time>
      </trkpt>
      <trkpt lat="45.63241" lon="6.02429">
        <ele>1229.9</ele>
        <time>2015-12-15T13:39:18Z</time>
      </trkpt>
      <trkpt lat="45.63239" lon="6.02443">
        <ele>1226.8</ele>
        <time>2015-12-15T13:39:26Z</time>
      </trkpt>
      <trkpt lat="45.63236" lon="6.02456">
        <ele>1225.5</ele>
        <time>2015-12-15T13:39:33Z</time>
      </trkpt>
      <trkpt lat="45.63232" lon="6.02469">
        <ele>1224.8</ele>
        <time>2015-12-15T13:39:41Z</time>
      </trkpt>
      <trkpt lat="45.63226" lon="6.0248">
        <ele>1225</ele>
        <time>2015-12-15T13:39:49Z</time>
      </trkpt>
      <trkpt lat="45.63217" lon="6.0248">
        <ele>1225.7</ele>
        <time>2015-12-15T13:39:59Z</time>
      </trkpt>
      <trkpt lat="45.63209" lon="6.02473">
        <ele>1230.6</ele>
        <time>2015-12-15T13:40:10Z</time>
      </trkpt>
      <trkpt lat="45.632" lon="6.02473">
        <ele>1230.6</ele>
        <time>2015-12-15T13:40:17Z</time>
      </trkpt>
      <trkpt lat="45.6319" lon="6.02471">
        <ele>1229.5</ele>
        <time>2015-12-15T13:40:24Z</time>
      </trkpt>
      <trkpt lat="45.6318" lon="6.02468">
        <ele>1229.5</ele>
        <time>2015-12-15T13:40:33Z</time>
      </trkpt>
      <trkpt lat="45.63176" lon="6.02457">
        <ele>1231.9</ele>
        <time>2015-12-15T13:40:41Z</time>
      </trkpt>
      <trkpt lat="45.63172" lon="6.02444">
        <ele>1234.4</ele>
        <time>2015-12-15T13:40:50Z</time>
      </trkpt>
      <trkpt lat="45.63167" lon="6.02433">
        <ele>1235.6</ele>
        <time>2015-12-15T13:40:57Z</time>
      </trkpt>
      <trkpt lat="45.63161" lon="6.02421">
        <ele>1236.6</ele>
        <time>2015-12-15T13:41:04Z</time>
      </trkpt>
      <trkpt lat="45.63153" lon="6.02413">
        <ele>1237.6</ele>
        <time>2015-12-15T13:41:10Z</time>
      </trkpt>
      <trkpt lat="45.63143" lon="6.02413">
        <ele>1233.5</ele>
        <time>2015-12-15T13:41:18Z</time>
      </trkpt>
      <trkpt lat="45.63134" lon="6.02412">
        <ele>1228</ele>
        <time>2015-12-15T13:41:25Z</time>
      </trkpt>
      <trkpt lat="45.63124" lon="6.02412">
        <ele>1225.1</ele>
        <time>2015-12-15T13:41:32Z</time>
      </trkpt>
      <trkpt lat="45.63114" lon="6.02414">
        <ele>1223.6</ele>
        <time>2015-12-15T13:41:40Z</time>
      </trkpt>
      <trkpt lat="45.63106" lon="6.02422">
        <ele>1223.2</ele>
        <time>2015-12-15T13:41:50Z</time>
      </trkpt>
      <trkpt lat="45.63098" lon="6.02428">
        <ele>1227.8</ele>
        <time>2015-12-15T13:41:59Z</time>
      </trkpt>
      <trkpt lat="45.63089" lon="6.02431">
        <ele>1229.3</ele>
        <time>2015-12-15T13:42:07Z</time>
      </trkpt>
      <trkpt lat="45.63079" lon="6.02432">
        <ele>1227.7</ele>
        <time>2015-12-15T13:42:16Z</time>
      </trkpt>
      <trkpt lat="45.63069" lon="6.02432">
        <ele>1225.9</ele>
        <time>2015-12-15T13:42:23Z</time>
      </trkpt>
      <trkpt lat="45.6306" lon="6.02434">
        <ele>1222.5</ele>
        <time>2015-12-15T13:42:31Z</time>
      </trkpt>
      <trkpt lat="45.6305" lon="6.02437">
        <ele>1218.9</ele>
        <time>2015-12-15T13:42:39Z</time>
      </trkpt>
      <trkpt lat="45.63042" lon="6.02442">
        <ele>1216.7</ele>
        <time>2015-12-15T13:42:47Z</time>
      </trkpt>
      <trkpt lat="45.63033" lon="6.02443">
        <ele>1216.7</ele>
        <time>2015-12-15T13:42:54Z</time>
      </trkpt>
      <trkpt lat="45.63024" lon="6.02446">
        <ele>1217</ele>
        <time>2015-12-15T13:43:04Z</time>
      </trkpt>
      <trkpt lat="45.63016" lon="6.02455">
        <ele>1223.1</ele>
        <time>2015-12-15T13:43:18Z</time>
      </trkpt>
      <trkpt lat="45.63022" lon="6.02445">
        <ele>1214.8</ele>
        <time>2015-12-15T13:43:36Z</time>
      </trkpt>
      <trkpt lat="45.63018" lon="6.02432">
        <ele>1226.4</ele>
        <time>2015-12-15T13:43:47Z</time>
      </trkpt>
      <trkpt lat="45.63016" lon="6.02417">
        <ele>1234.5</ele>
        <time>2015-12-15T13:43:57Z</time>
      </trkpt>
      <trkpt lat="45.63019" lon="6.02404">
        <ele>1232</ele>
        <time>2015-12-15T13:44:04Z</time>
      </trkpt>
      <trkpt lat="45.63023" lon="6.0239">
        <ele>1226.7</ele>
        <time>2015-12-15T13:44:12Z</time>
      </trkpt>
      <trkpt lat="45.63026" lon="6.02375">
        <ele>1224.9</ele>
        <time>2015-12-15T13:44:20Z</time>
      </trkpt>
      <trkpt lat="45.63027" lon="6.02362">
        <ele>1223.1</ele>
        <time>2015-12-15T13:44:28Z</time>
      </trkpt>
      <trkpt lat="45.63028" lon="6.02349">
        <ele>1220.9</ele>
        <time>2015-12-15T13:44:38Z</time>
      </trkpt>
      <trkpt lat="45.63029" lon="6.02335">
        <ele>1218.3</ele>
        <time>2015-12-15T13:44:47Z</time>
      </trkpt>
      <trkpt lat="45.63031" lon="6.02322">
        <ele>1216.3</ele>
        <time>2015-12-15T13:44:55Z</time>
      </trkpt>
      <trkpt lat="45.63029" lon="6.02308">
        <ele>1217.3</ele>
        <time>2015-12-15T13:45:03Z</time>
      </trkpt>
      <trkpt lat="45.63024" lon="6.02297">
        <ele>1214.6</ele>
        <time>2015-12-15T13:45:11Z</time>
      </trkpt>
      <trkpt lat="45.63018" lon="6.02287">
        <ele>1211.4</ele>
        <time>2015-12-15T13:45:23Z</time>
      </trkpt>
      <trkpt lat="45.63009" lon="6.02281">
        <ele>1206.1</ele>
        <time>2015-12-15T13:45:32Z</time>
      </trkpt>
      <trkpt lat="45.63003" lon="6.0227">
        <ele>1202.6</ele>
        <time>2015-12-15T13:45:40Z</time>
      </trkpt>
      <trkpt lat="45.62998" lon="6.02259">
        <ele>1200.3</ele>
        <time>2015-12-15T13:45:48Z</time>
      </trkpt>
      <trkpt lat="45.62991" lon="6.02249">
        <ele>1196.5</ele>
        <time>2015-12-15T13:45:56Z</time>
      </trkpt>
      <trkpt lat="45.62984" lon="6.0224">
        <ele>1193.8</ele>
        <time>2015-12-15T13:46:04Z</time>
      </trkpt>
      <trkpt lat="45.62977" lon="6.02232">
        <ele>1196</ele>
        <time>2015-12-15T13:46:12Z</time>
      </trkpt>
      <trkpt lat="45.6297" lon="6.02223">
        <ele>1195.3</ele>
        <time>2015-12-15T13:46:20Z</time>
      </trkpt>
      <trkpt lat="45.62965" lon="6.0221">
        <ele>1190.5</ele>
        <time>2015-12-15T13:46:29Z</time>
      </trkpt>
      <trkpt lat="45.62963" lon="6.02197">
        <ele>1181</ele>
        <time>2015-12-15T13:46:39Z</time>
      </trkpt>
      <trkpt lat="45.62965" lon="6.02183">
        <ele>1172.1</ele>
        <time>2015-12-15T13:46:49Z</time>
      </trkpt>
      <trkpt lat="45.62965" lon="6.02169">
        <ele>1167.1</ele>
        <time>2015-12-15T13:47:05Z</time>
      </trkpt>
      <trkpt lat="45.62967" lon="6.02155">
        <ele>1163.7</ele>
        <time>2015-12-15T13:47:14Z</time>
      </trkpt>
      <trkpt lat="45.6297" lon="6.02142">
        <ele>1161.4</ele>
        <time>2015-12-15T13:47:22Z</time>
      </trkpt>
      <trkpt lat="45.62973" lon="6.02129">
        <ele>1157.6</ele>
        <time>2015-12-15T13:47:31Z</time>
      </trkpt>
      <trkpt lat="45.62973" lon="6.02116">
        <ele>1157.7</ele>
        <time>2015-12-15T13:47:39Z</time>
      </trkpt>
      <trkpt lat="45.62973" lon="6.02102">
        <ele>1159</ele>
        <time>2015-12-15T13:47:47Z</time>
      </trkpt>
      <trkpt lat="45.62969" lon="6.0209">
        <ele>1161.7</ele>
        <time>2015-12-15T13:47:55Z</time>
      </trkpt>
      <trkpt lat="45.62962" lon="6.02082">
        <ele>1160.9</ele>
        <time>2015-12-15T13:48:08Z</time>
      </trkpt>
      <trkpt lat="45.62954" lon="6.02074">
        <ele>1159.2</ele>
        <time>2015-12-15T13:48:23Z</time>
      </trkpt>
      <trkpt lat="45.62949" lon="6.02064">
        <ele>1157</ele>
        <time>2015-12-15T13:48:33Z</time>
      </trkpt>
      <trkpt lat="45.62943" lon="6.02053">
        <ele>1155.2</ele>
        <time>2015-12-15T13:48:41Z</time>
      </trkpt>
      <trkpt lat="45.62936" lon="6.02045">
        <ele>1155.3</ele>
        <time>2015-12-15T13:48:48Z</time>
      </trkpt>
      <trkpt lat="45.62927" lon="6.02038">
        <ele>1155.2</ele>
        <time>2015-12-15T13:48:55Z</time>
      </trkpt>
      <trkpt lat="45.62917" lon="6.02034">
        <ele>1154.5</ele>
        <time>2015-12-15T13:49:02Z</time>
      </trkpt>
      <trkpt lat="45.62907" lon="6.02032">
        <ele>1152.7</ele>
        <time>2015-12-15T13:49:09Z</time>
      </trkpt>
      <trkpt lat="45.62898" lon="6.02032">
        <ele>1150.2</ele>
        <time>2015-12-15T13:49:16Z</time>
      </trkpt>
      <trkpt lat="45.62889" lon="6.02029">
        <ele>1143.7</ele>
        <time>2015-12-15T13:49:26Z</time>
      </trkpt>
      <trkpt lat="45.62882" lon="6.0202">
        <ele>1137.6</ele>
        <time>2015-12-15T13:49:36Z</time>
      </trkpt>
      <trkpt lat="45.62877" lon="6.0201">
        <ele>1138.9</ele>
        <time>2015-12-15T13:49:45Z</time>
      </trkpt>
      <trkpt lat="45.62874" lon="6.01997">
        <ele>1141.9</ele>
        <time>2015-12-15T13:49:55Z</time>
      </trkpt>
      <trkpt lat="45.62882" lon="6.01988">
        <ele>1137.9</ele>
        <time>2015-12-15T13:50:05Z</time>
      </trkpt>
      <trkpt lat="45.62891" lon="6.01989">
        <ele>1134.6</ele>
        <time>2015-12-15T13:50:14Z</time>
      </trkpt>
      <trkpt lat="45.62899" lon="6.01995">
        <ele>1133.9</ele>
        <time>2015-12-15T13:50:24Z</time>
      </trkpt>
      <trkpt lat="45.62908" lon="6.01995">
        <ele>1130.9</ele>
        <time>2015-12-15T13:50:34Z</time>
      </trkpt>
      <trkpt lat="45.62917" lon="6.0199">
        <ele>1127.8</ele>
        <time>2015-12-15T13:50:42Z</time>
      </trkpt>
      <trkpt lat="45.62922" lon="6.01979">
        <ele>1126.4</ele>
        <time>2015-12-15T13:50:51Z</time>
      </trkpt>
      <trkpt lat="45.62922" lon="6.01964">
        <ele>1134.3</ele>
        <time>2015-12-15T13:51:02Z</time>
      </trkpt>
      <trkpt lat="45.62918" lon="6.01953">
        <ele>1136.1</ele>
        <time>2015-12-15T13:51:10Z</time>
      </trkpt>
      <trkpt lat="45.62914" lon="6.01941">
        <ele>1135.7</ele>
        <time>2015-12-15T13:51:18Z</time>
      </trkpt>
      <trkpt lat="45.62909" lon="6.01929">
        <ele>1133.9</ele>
        <time>2015-12-15T13:51:26Z</time>
      </trkpt>
      <trkpt lat="45.62902" lon="6.01921">
        <ele>1130.6</ele>
        <time>2015-12-15T13:51:33Z</time>
      </trkpt>
      <trkpt lat="45.62895" lon="6.01913">
        <ele>1127.3</ele>
        <time>2015-12-15T13:51:40Z</time>
      </trkpt>
      <trkpt lat="45.62887" lon="6.01904">
        <ele>1124.4</ele>
        <time>2015-12-15T13:51:48Z</time>
      </trkpt>
      <trkpt lat="45.62882" lon="6.01893">
        <ele>1121.6</ele>
        <time>2015-12-15T13:51:56Z</time>
      </trkpt>
      <trkpt lat="45.62878" lon="6.0188">
        <ele>1119.4</ele>
        <time>2015-12-15T13:52:04Z</time>
      </trkpt>
      <trkpt lat="45.62875" lon="6.01868">
        <ele>1119.7</ele>
        <time>2015-12-15T13:52:13Z</time>
      </trkpt>
      <trkpt lat="45.62872" lon="6.01855">
        <ele>1120.9</ele>
        <time>2015-12-15T13:52:23Z</time>
      </trkpt>
      <trkpt lat="45.62867" lon="6.01844">
        <ele>1124.2</ele>
        <time>2015-12-15T13:52:32Z</time>
      </trkpt>
      <trkpt lat="45.62867" lon="6.01831">
        <ele>1121.4</ele>
        <time>2015-12-15T13:52:43Z</time>
      </trkpt>
      <trkpt lat="45.62863" lon="6.01818">
        <ele>1116</ele>
        <time>2015-12-15T13:52:56Z</time>
      </trkpt>
      <trkpt lat="45.62857" lon="6.01807">
        <ele>1114.7</ele>
        <time>2015-12-15T13:53:06Z</time>
      </trkpt>
      <trkpt lat="45.62849" lon="6.01802">
        <ele>1113</ele>
        <time>2015-12-15T13:53:12Z</time>
      </trkpt>
      <trkpt lat="45.6284" lon="6.01797">
        <ele>1111.1</ele>
        <time>2015-12-15T13:53:20Z</time>
      </trkpt>
      <trkpt lat="45.62832" lon="6.01788">
        <ele>1109.5</ele>
        <time>2015-12-15T13:53:30Z</time>
      </trkpt>
      <trkpt lat="45.62826" lon="6.01777">
        <ele>1105.9</ele>
        <time>2015-12-15T13:53:39Z</time>
      </trkpt>
      <trkpt lat="45.62825" lon="6.01764">
        <ele>1101.4</ele>
        <time>2015-12-15T13:53:50Z</time>
      </trkpt>
      <trkpt lat="45.62819" lon="6.01753">
        <ele>1099.4</ele>
        <time>2015-12-15T13:54:02Z</time>
      </trkpt>
      <trkpt lat="45.62813" lon="6.01744">
        <ele>1099.9</ele>
        <time>2015-12-15T13:54:11Z</time>
      </trkpt>
      <trkpt lat="45.62807" lon="6.01732">
        <ele>1097.9</ele>
        <time>2015-12-15T13:54:19Z</time>
      </trkpt>
      <trkpt lat="45.62804" lon="6.0172">
        <ele>1095.8</ele>
        <time>2015-12-15T13:54:27Z</time>
      </trkpt>
      <trkpt lat="45.62798" lon="6.01708">
        <ele>1093.8</ele>
        <time>2015-12-15T13:54:35Z</time>
      </trkpt>
      <trkpt lat="45.62791" lon="6.01699">
        <ele>1092.2</ele>
        <time>2015-12-15T13:54:43Z</time>
      </trkpt>
      <trkpt lat="45.62796" lon="6.01687">
        <ele>1080.7</ele>
        <time>2015-12-15T13:54:57Z</time>
      </trkpt>
      <trkpt lat="45.62802" lon="6.01676">
        <ele>1069.3</ele>
        <time>2015-12-15T13:55:08Z</time>
      </trkpt>
      <trkpt lat="45.62806" lon="6.01663">
        <ele>1063.4</ele>
        <time>2015-12-15T13:55:18Z</time>
      </trkpt>
      <trkpt lat="45.62809" lon="6.01649">
        <ele>1062.7</ele>
        <time>2015-12-15T13:55:26Z</time>
      </trkpt>
      <trkpt lat="45.62811" lon="6.01636">
        <ele>1062.4</ele>
        <time>2015-12-15T13:55:34Z</time>
      </trkpt>
      <trkpt lat="45.62812" lon="6.01623">
        <ele>1061.8</ele>
        <time>2015-12-15T13:55:43Z</time>
      </trkpt>
      <trkpt lat="45.62809" lon="6.0161">
        <ele>1061.7</ele>
        <time>2015-12-15T13:55:51Z</time>
      </trkpt>
      <trkpt lat="45.62806" lon="6.01597">
        <ele>1061.1</ele>
        <time>2015-12-15T13:55:58Z</time>
      </trkpt>
      <trkpt lat="45.62802" lon="6.01585">
        <ele>1059.7</ele>
        <time>2015-12-15T13:56:05Z</time>
      </trkpt>
      <trkpt lat="45.62796" lon="6.01573">
        <ele>1058.3</ele>
        <time>2015-12-15T13:56:12Z</time>
      </trkpt>
      <trkpt lat="45.62788" lon="6.01565">
        <ele>1056.8</ele>
        <time>2015-12-15T13:56:19Z</time>
      </trkpt>
      <trkpt lat="45.62779" lon="6.01558">
        <ele>1056.3</ele>
        <time>2015-12-15T13:56:26Z</time>
      </trkpt>
      <trkpt lat="45.6277" lon="6.01555">
        <ele>1055.7</ele>
        <time>2015-12-15T13:56:33Z</time>
      </trkpt>
      <trkpt lat="45.62761" lon="6.0155">
        <ele>1054.4</ele>
        <time>2015-12-15T13:56:40Z</time>
      </trkpt>
      <trkpt lat="45.62752" lon="6.01545">
        <ele>1052.1</ele>
        <time>2015-12-15T13:56:47Z</time>
      </trkpt>
      <trkpt lat="45.62742" lon="6.01546">
        <ele>1050.2</ele>
        <time>2015-12-15T13:56:54Z</time>
      </trkpt>
      <trkpt lat="45.62733" lon="6.01547">
        <ele>1048.2</ele>
        <time>2015-12-15T13:57:01Z</time>
      </trkpt>
      <trkpt lat="45.62723" lon="6.01552">
        <ele>1044.6</ele>
        <time>2015-12-15T13:57:09Z</time>
      </trkpt>
      <trkpt lat="45.62713" lon="6.01553">
        <ele>1041.7</ele>
        <time>2015-12-15T13:57:16Z</time>
      </trkpt>
      <trkpt lat="45.62704" lon="6.0155">
        <ele>1040.8</ele>
        <time>2015-12-15T13:57:23Z</time>
      </trkpt>
      <trkpt lat="45.62694" lon="6.01545">
        <ele>1041.7</ele>
        <time>2015-12-15T13:57:30Z</time>
      </trkpt>
      <trkpt lat="45.62685" lon="6.01544">
        <ele>1042.4</ele>
        <time>2015-12-15T13:57:37Z</time>
      </trkpt>
      <trkpt lat="45.62675" lon="6.01547">
        <ele>1042.6</ele>
        <time>2015-12-15T13:57:45Z</time>
      </trkpt>
      <trkpt lat="45.62666" lon="6.01549">
        <ele>1043.6</ele>
        <time>2015-12-15T13:57:52Z</time>
      </trkpt>
      <trkpt lat="45.62656" lon="6.01546">
        <ele>1044.3</ele>
        <time>2015-12-15T13:58:00Z</time>
      </trkpt>
      <trkpt lat="45.62648" lon="6.01538">
        <ele>1045.2</ele>
        <time>2015-12-15T13:58:08Z</time>
      </trkpt>
      <trkpt lat="45.6264" lon="6.0153">
        <ele>1045</ele>
        <time>2015-12-15T13:58:16Z</time>
      </trkpt>
      <trkpt lat="45.62633" lon="6.01522">
        <ele>1043.8</ele>
        <time>2015-12-15T13:58:24Z</time>
      </trkpt>
      <trkpt lat="45.62627" lon="6.01512">
        <ele>1041.6</ele>
        <time>2015-12-15T13:58:32Z</time>
      </trkpt>
      <trkpt lat="45.62619" lon="6.01503">
        <ele>1039.4</ele>
        <time>2015-12-15T13:58:40Z</time>
      </trkpt>
      <trkpt lat="45.62612" lon="6.01495">
        <ele>1036.1</ele>
        <time>2015-12-15T13:58:48Z</time>
      </trkpt>
      <trkpt lat="45.62603" lon="6.0149">
        <ele>1032.3</ele>
        <time>2015-12-15T13:58:56Z</time>
      </trkpt>
      <trkpt lat="45.62593" lon="6.01487">
        <ele>1031.9</ele>
        <time>2015-12-15T13:59:03Z</time>
      </trkpt>
      <trkpt lat="45.62584" lon="6.01484">
        <ele>1034.3</ele>
        <time>2015-12-15T13:59:10Z</time>
      </trkpt>
      <trkpt lat="45.62576" lon="6.01477">
        <ele>1033.9</ele>
        <time>2015-12-15T13:59:18Z</time>
      </trkpt>
      <trkpt lat="45.62567" lon="6.01469">
        <ele>1034.7</ele>
        <time>2015-12-15T13:59:26Z</time>
      </trkpt>
      <trkpt lat="45.62562" lon="6.01458">
        <ele>1033</ele>
        <time>2015-12-15T13:59:34Z</time>
      </trkpt>
      <trkpt lat="45.62555" lon="6.01449">
        <ele>1028.2</ele>
        <time>2015-12-15T14:00:09Z</time>
      </trkpt>
      <trkpt lat="45.62548" lon="6.0144">
        <ele>1027.7</ele>
        <time>2015-12-15T14:00:16Z</time>
      </trkpt>
      <trkpt lat="45.62541" lon="6.0143">
        <ele>1027.1</ele>
        <time>2015-12-15T14:00:23Z</time>
      </trkpt>
      <trkpt lat="45.62532" lon="6.01427">
        <ele>1024.8</ele>
        <time>2015-12-15T14:00:31Z</time>
      </trkpt>
      <trkpt lat="45.62523" lon="6.01429">
        <ele>1021.7</ele>
        <time>2015-12-15T14:00:40Z</time>
      </trkpt>
      <trkpt lat="45.62513" lon="6.01428">
        <ele>1018.4</ele>
        <time>2015-12-15T14:00:51Z</time>
      </trkpt>
      <trkpt lat="45.62504" lon="6.01429">
        <ele>1015.5</ele>
        <time>2015-12-15T14:00:59Z</time>
      </trkpt>
      <trkpt lat="45.62495" lon="6.01425">
        <ele>1012.9</ele>
        <time>2015-12-15T14:01:07Z</time>
      </trkpt>
      <trkpt lat="45.62487" lon="6.01418">
        <ele>1010.4</ele>
        <time>2015-12-15T14:01:16Z</time>
      </trkpt>
      <trkpt lat="45.62479" lon="6.01412">
        <ele>1008.5</ele>
        <time>2015-12-15T14:01:25Z</time>
      </trkpt>
      <trkpt lat="45.6247" lon="6.01411">
        <ele>1006.3</ele>
        <time>2015-12-15T14:01:34Z</time>
      </trkpt>
      <trkpt lat="45.6246" lon="6.01411">
        <ele>1003.7</ele>
        <time>2015-12-15T14:01:43Z</time>
      </trkpt>
      <trkpt lat="45.62451" lon="6.01409">
        <ele>1001.4</ele>
        <time>2015-12-15T14:01:51Z</time>
      </trkpt>
      <trkpt lat="45.62442" lon="6.01402">
        <ele>1000.2</ele>
        <time>2015-12-15T14:01:59Z</time>
      </trkpt>
      <trkpt lat="45.62435" lon="6.01394">
        <ele>997.8</ele>
        <time>2015-12-15T14:02:06Z</time>
      </trkpt>
      <trkpt lat="45.62426" lon="6.01389">
        <ele>993.7</ele>
        <time>2015-12-15T14:02:16Z</time>
      </trkpt>
      <trkpt lat="45.62417" lon="6.01382">
        <ele>991.8</ele>
        <time>2015-12-15T14:02:24Z</time>
      </trkpt>
      <trkpt lat="45.62409" lon="6.01376">
        <ele>989.9</ele>
        <time>2015-12-15T14:02:31Z</time>
      </trkpt>
      <trkpt lat="45.62404" lon="6.01365">
        <ele>988</ele>
        <time>2015-12-15T14:02:38Z</time>
      </trkpt>
      <trkpt lat="45.62399" lon="6.01353">
        <ele>985.8</ele>
        <time>2015-12-15T14:02:46Z</time>
      </trkpt>
      <trkpt lat="45.62394" lon="6.0134">
        <ele>982.8</ele>
        <time>2015-12-15T14:02:54Z</time>
      </trkpt>
      <trkpt lat="45.62389" lon="6.01329">
        <ele>980.8</ele>
        <time>2015-12-15T14:03:01Z</time>
      </trkpt>
      <trkpt lat="45.62383" lon="6.01319">
        <ele>979.4</ele>
        <time>2015-12-15T14:03:08Z</time>
      </trkpt>
      <trkpt lat="45.62377" lon="6.01308">
        <ele>979.5</ele>
        <time>2015-12-15T14:03:15Z</time>
      </trkpt>
      <trkpt lat="45.62372" lon="6.01297">
        <ele>979.4</ele>
        <time>2015-12-15T14:03:22Z</time>
      </trkpt>
      <trkpt lat="45.62366" lon="6.01285">
        <ele>979.2</ele>
        <time>2015-12-15T14:03:29Z</time>
      </trkpt>
      <trkpt lat="45.62361" lon="6.01273">
        <ele>977.9</ele>
        <time>2015-12-15T14:03:37Z</time>
      </trkpt>
      <trkpt lat="45.62355" lon="6.01261">
        <ele>974.6</ele>
        <time>2015-12-15T14:03:47Z</time>
      </trkpt>
      <trkpt lat="45.62349" lon="6.01251">
        <ele>972.7</ele>
        <time>2015-12-15T14:03:56Z</time>
      </trkpt>
      <trkpt lat="45.62345" lon="6.0124">
        <ele>973</ele>
        <time>2015-12-15T14:04:04Z</time>
      </trkpt>
      <trkpt lat="45.62344" lon="6.01227">
        <ele>974.1</ele>
        <time>2015-12-15T14:04:12Z</time>
      </trkpt>
      <trkpt lat="45.62349" lon="6.01216">
        <ele>969.4</ele>
        <time>2015-12-15T14:04:20Z</time>
      </trkpt>
      <trkpt lat="45.62356" lon="6.01207">
        <ele>964.6</ele>
        <time>2015-12-15T14:04:29Z</time>
      </trkpt>
      <trkpt lat="45.62352" lon="6.01195">
        <ele>960.9</ele>
        <time>2015-12-15T14:04:40Z</time>
      </trkpt>
      <trkpt lat="45.62346" lon="6.01184">
        <ele>959.5</ele>
        <time>2015-12-15T14:04:50Z</time>
      </trkpt>
      <trkpt lat="45.62346" lon="6.0117">
        <ele>962.1</ele>
        <time>2015-12-15T14:04:57Z</time>
      </trkpt>
      <trkpt lat="45.62349" lon="6.01157">
        <ele>963.9</ele>
        <time>2015-12-15T14:05:03Z</time>
      </trkpt>
      <trkpt lat="45.6235" lon="6.01143">
        <ele>963.8</ele>
        <time>2015-12-15T14:05:10Z</time>
      </trkpt>
      <trkpt lat="45.62351" lon="6.01129">
        <ele>964.5</ele>
        <time>2015-12-15T14:05:17Z</time>
      </trkpt>
      <trkpt lat="45.62352" lon="6.01116">
        <ele>965.8</ele>
        <time>2015-12-15T14:05:24Z</time>
      </trkpt>
      <trkpt lat="45.62349" lon="6.01103">
        <ele>965.6</ele>
        <time>2015-12-15T14:05:32Z</time>
      </trkpt>
      <trkpt lat="45.62348" lon="6.01089">
        <ele>965.4</ele>
        <time>2015-12-15T14:05:39Z</time>
      </trkpt>
      <trkpt lat="45.62348" lon="6.01076">
        <ele>963.5</ele>
        <time>2015-12-15T14:05:49Z</time>
      </trkpt>
      <trkpt lat="45.62339" lon="6.01071">
        <ele>961.2</ele>
        <time>2015-12-15T14:05:58Z</time>
      </trkpt>
      <trkpt lat="45.6233" lon="6.01071">
        <ele>959.3</ele>
        <time>2015-12-15T14:06:04Z</time>
      </trkpt>
      <trkpt lat="45.6232" lon="6.0107">
        <ele>957.3</ele>
        <time>2015-12-15T14:06:11Z</time>
      </trkpt>
      <trkpt lat="45.6231" lon="6.01069">
        <ele>955.8</ele>
        <time>2015-12-15T14:06:17Z</time>
      </trkpt>
      <trkpt lat="45.62301" lon="6.01067">
        <ele>953.8</ele>
        <time>2015-12-15T14:06:23Z</time>
      </trkpt>
      <trkpt lat="45.62292" lon="6.01066">
        <ele>952.2</ele>
        <time>2015-12-15T14:06:29Z</time>
      </trkpt>
      <trkpt lat="45.62283" lon="6.01065">
        <ele>951.4</ele>
        <time>2015-12-15T14:06:35Z</time>
      </trkpt>
      <trkpt lat="45.62273" lon="6.01063">
        <ele>950.3</ele>
        <time>2015-12-15T14:06:42Z</time>
      </trkpt>
      <trkpt lat="45.62262" lon="6.01061">
        <ele>950.5</ele>
        <time>2015-12-15T14:06:49Z</time>
      </trkpt>
      <trkpt lat="45.62254" lon="6.01055">
        <ele>953.1</ele>
        <time>2015-12-15T14:06:54Z</time>
      </trkpt>
      <trkpt lat="45.62245" lon="6.01051">
        <ele>955.6</ele>
        <time>2015-12-15T14:07:00Z</time>
      </trkpt>
      <trkpt lat="45.62235" lon="6.0105">
        <ele>955.8</ele>
        <time>2015-12-15T14:07:07Z</time>
      </trkpt>
      <trkpt lat="45.62224" lon="6.01047">
        <ele>955.5</ele>
        <time>2015-12-15T14:07:14Z</time>
      </trkpt>
      <trkpt lat="45.62215" lon="6.01044">
        <ele>956.5</ele>
        <time>2015-12-15T14:07:20Z</time>
      </trkpt>
      <trkpt lat="45.62206" lon="6.0104">
        <ele>957.6</ele>
        <time>2015-12-15T14:07:27Z</time>
      </trkpt>
      <trkpt lat="45.62197" lon="6.01039">
        <ele>955.2</ele>
        <time>2015-12-15T14:07:35Z</time>
      </trkpt>
      <trkpt lat="45.62187" lon="6.01041">
        <ele>952</ele>
        <time>2015-12-15T14:07:43Z</time>
      </trkpt>
      <trkpt lat="45.62184" lon="6.01053">
        <ele>948.5</ele>
        <time>2015-12-15T14:07:51Z</time>
      </trkpt>
      <trkpt lat="45.6218" lon="6.01065">
        <ele>946.4</ele>
        <time>2015-12-15T14:07:57Z</time>
      </trkpt>
      <trkpt lat="45.62173" lon="6.01075">
        <ele>943.6</ele>
        <time>2015-12-15T14:08:05Z</time>
      </trkpt>
      <trkpt lat="45.62173" lon="6.01088">
        <ele>937.3</ele>
        <time>2015-12-15T14:09:33Z</time>
      </trkpt>
      <trkpt lat="45.6217" lon="6.0109">
        <ele>942.7</ele>
        <time>2015-12-15T14:11:28Z</time>
      </trkpt>
    </trkseg>
  </trk>
</gpx>